<?xml version='1.0' encoding='UTF-8'?>
<gpx version="1.1" creator="https://www.komoot.de" xmlns="http://www.topografix.com/GPX/1/1" xmlns:xsi="http://www.w3.org/2001/XMLSchema-instance" xsi:schemaLocation="http://www.topografix.com/GPX/1/1 http://www.topografix.com/GPX/1/1/gpx.xsd">
  <metadata>
    <name>Schauinsland Höhenweg. 11 km Strecke</name>
    <author>
      <link href="https://www.komoot.de">
        <text>komoot</text>
        <type>text/html</type>
      </link>
    </author>
  </metadata>
  <trk>
    <name>Schauinsland Höhenweg. 11 km Strecke</name>
    <trkseg>
      <trkpt lat="47.890955" lon="7.892370">
        <ele>1154.629432</ele>
        <time>2021-09-03T15:53:21.000Z</time>
      </trkpt>
      <trkpt lat="47.891049" lon="7.892367">
        <ele>1154.629432</ele>
        <time>2021-09-03T15:53:27.999Z</time>
      </trkpt>
      <trkpt lat="47.891151" lon="7.892402">
        <ele>1154.629432</ele>
        <time>2021-09-03T15:53:34.999Z</time>
      </trkpt>
      <trkpt lat="47.891248" lon="7.892418">
        <ele>1154.629432</ele>
        <time>2021-09-03T15:53:41.999Z</time>
      </trkpt>
      <trkpt lat="47.891341" lon="7.892439">
        <ele>1154.629432</ele>
        <time>2021-09-03T15:53:49.999Z</time>
      </trkpt>
      <trkpt lat="47.891438" lon="7.892467">
        <ele>1154.629432</ele>
        <time>2021-09-03T15:53:57.000Z</time>
      </trkpt>
      <trkpt lat="47.891529" lon="7.892471">
        <ele>1154.629432</ele>
        <time>2021-09-03T15:54:03.000Z</time>
      </trkpt>
      <trkpt lat="47.891627" lon="7.892514">
        <ele>1154.629432</ele>
        <time>2021-09-03T15:54:10.000Z</time>
      </trkpt>
      <trkpt lat="47.891710" lon="7.892571">
        <ele>1154.629432</ele>
        <time>2021-09-03T15:54:17.000Z</time>
      </trkpt>
      <trkpt lat="47.891798" lon="7.892606">
        <ele>1154.629432</ele>
        <time>2021-09-03T15:54:24.000Z</time>
      </trkpt>
      <trkpt lat="47.891897" lon="7.892624">
        <ele>1154.797771</ele>
        <time>2021-09-03T15:54:42.000Z</time>
      </trkpt>
      <trkpt lat="47.891998" lon="7.892648">
        <ele>1155.061847</ele>
        <time>2021-09-03T15:54:49.000Z</time>
      </trkpt>
      <trkpt lat="47.892089" lon="7.892659">
        <ele>1155.297584</ele>
        <time>2021-09-03T15:54:55.000Z</time>
      </trkpt>
      <trkpt lat="47.892186" lon="7.892629">
        <ele>1155.553372</ele>
        <time>2021-09-03T15:55:02.000Z</time>
      </trkpt>
      <trkpt lat="47.892286" lon="7.892606">
        <ele>1155.814629</ele>
        <time>2021-09-03T15:55:09.000Z</time>
      </trkpt>
      <trkpt lat="47.892381" lon="7.892567">
        <ele>1156.069048</ele>
        <time>2021-09-03T15:55:16.000Z</time>
      </trkpt>
      <trkpt lat="47.892479" lon="7.892530">
        <ele>1156.330071</ele>
        <time>2021-09-03T15:55:22.999Z</time>
      </trkpt>
      <trkpt lat="47.892575" lon="7.892480">
        <ele>1156.592629</ele>
        <time>2021-09-03T15:55:29.999Z</time>
      </trkpt>
      <trkpt lat="47.892663" lon="7.892426">
        <ele>1156.838331</ele>
        <time>2021-09-03T15:55:36.999Z</time>
      </trkpt>
      <trkpt lat="47.892758" lon="7.892392">
        <ele>1157.090590</ele>
        <time>2021-09-03T15:55:43.999Z</time>
      </trkpt>
      <trkpt lat="47.892857" lon="7.892353">
        <ele>1157.354980</ele>
        <time>2021-09-03T15:55:50.999Z</time>
      </trkpt>
      <trkpt lat="47.892952" lon="7.892312">
        <ele>1157.610339</ele>
        <time>2021-09-03T15:55:58.000Z</time>
      </trkpt>
      <trkpt lat="47.893044" lon="7.892265">
        <ele>1157.861438</ele>
        <time>2021-09-03T15:56:05.000Z</time>
      </trkpt>
      <trkpt lat="47.893128" lon="7.892217">
        <ele>1158.093706</ele>
        <time>2021-09-03T15:56:12.000Z</time>
      </trkpt>
      <trkpt lat="47.893222" lon="7.892179">
        <ele>1158.345177</ele>
        <time>2021-09-03T15:56:19.000Z</time>
      </trkpt>
      <trkpt lat="47.893303" lon="7.892105">
        <ele>1158.590444</ele>
        <time>2021-09-03T15:56:26.000Z</time>
      </trkpt>
      <trkpt lat="47.893361" lon="7.892000">
        <ele>1158.825973</ele>
        <time>2021-09-03T15:56:32.000Z</time>
      </trkpt>
      <trkpt lat="47.893392" lon="7.891866">
        <ele>1159.071387</ele>
        <time>2021-09-03T15:56:39.000Z</time>
      </trkpt>
      <trkpt lat="47.893387" lon="7.891727">
        <ele>1159.335752</ele>
        <time>2021-09-03T15:56:46.000Z</time>
      </trkpt>
      <trkpt lat="47.893443" lon="7.891607">
        <ele>1159.741462</ele>
        <time>2021-09-03T15:56:53.000Z</time>
      </trkpt>
      <trkpt lat="47.893529" lon="7.891556">
        <ele>1160.124485</ele>
        <time>2021-09-03T15:57:00.000Z</time>
      </trkpt>
      <trkpt lat="47.893624" lon="7.891520">
        <ele>1160.530145</ele>
        <time>2021-09-03T15:57:07.000Z</time>
      </trkpt>
      <trkpt lat="47.893716" lon="7.891490">
        <ele>1160.919890</ele>
        <time>2021-09-03T15:57:14.000Z</time>
      </trkpt>
      <trkpt lat="47.893810" lon="7.891449">
        <ele>1161.325213</ele>
        <time>2021-09-03T15:57:21.000Z</time>
      </trkpt>
      <trkpt lat="47.893899" lon="7.891384">
        <ele>1161.735340</ele>
        <time>2021-09-03T15:57:28.000Z</time>
      </trkpt>
      <trkpt lat="47.893992" lon="7.891336">
        <ele>1162.142625</ele>
        <time>2021-09-03T15:57:35.000Z</time>
      </trkpt>
      <trkpt lat="47.894080" lon="7.891271">
        <ele>1162.549040</ele>
        <time>2021-09-03T15:57:42.000Z</time>
      </trkpt>
      <trkpt lat="47.894178" lon="7.891224">
        <ele>1162.975076</ele>
        <time>2021-09-03T15:57:48.999Z</time>
      </trkpt>
      <trkpt lat="47.894272" lon="7.891161">
        <ele>1163.401579</ele>
        <time>2021-09-03T15:57:55.999Z</time>
      </trkpt>
      <trkpt lat="47.894365" lon="7.891143">
        <ele>1163.789695</ele>
        <time>2021-09-03T15:58:03.000Z</time>
      </trkpt>
      <trkpt lat="47.894459" lon="7.891173">
        <ele>1164.187530</ele>
        <time>2021-09-03T15:58:10.000Z</time>
      </trkpt>
      <trkpt lat="47.894556" lon="7.891188">
        <ele>1164.591126</ele>
        <time>2021-09-03T15:58:17.000Z</time>
      </trkpt>
      <trkpt lat="47.894653" lon="7.891207">
        <ele>1164.996016</ele>
        <time>2021-09-03T15:58:24.000Z</time>
      </trkpt>
      <trkpt lat="47.894749" lon="7.891232">
        <ele>1165.399332</ele>
        <time>2021-09-03T15:58:31.000Z</time>
      </trkpt>
      <trkpt lat="47.894841" lon="7.891251">
        <ele>1165.783716</ele>
        <time>2021-09-03T15:58:38.000Z</time>
      </trkpt>
      <trkpt lat="47.894938" lon="7.891260">
        <ele>1166.185935</ele>
        <time>2021-09-03T15:58:46.000Z</time>
      </trkpt>
      <trkpt lat="47.895037" lon="7.891292">
        <ele>1166.605167</ele>
        <time>2021-09-03T15:58:53.000Z</time>
      </trkpt>
      <trkpt lat="47.895130" lon="7.891350">
        <ele>1166.711153</ele>
        <time>2021-09-03T15:59:00.000Z</time>
      </trkpt>
      <trkpt lat="47.895216" lon="7.891430">
        <ele>1166.702466</ele>
        <time>2021-09-03T15:59:08.000Z</time>
      </trkpt>
      <trkpt lat="47.895311" lon="7.891496">
        <ele>1166.693485</ele>
        <time>2021-09-03T15:59:15.000Z</time>
      </trkpt>
      <trkpt lat="47.895404" lon="7.891563">
        <ele>1166.684633</ele>
        <time>2021-09-03T15:59:22.000Z</time>
      </trkpt>
      <trkpt lat="47.895484" lon="7.891625">
        <ele>1166.676906</ele>
        <time>2021-09-03T15:59:28.000Z</time>
      </trkpt>
      <trkpt lat="47.895567" lon="7.891701">
        <ele>1166.668559</ele>
        <time>2021-09-03T15:59:35.000Z</time>
      </trkpt>
      <trkpt lat="47.895660" lon="7.891756">
        <ele>1166.659985</ele>
        <time>2021-09-03T15:59:42.000Z</time>
      </trkpt>
      <trkpt lat="47.895749" lon="7.891794">
        <ele>1166.652051</ele>
        <time>2021-09-03T15:59:49.000Z</time>
      </trkpt>
      <trkpt lat="47.895837" lon="7.891761">
        <ele>1166.644274</ele>
        <time>2021-09-03T15:59:55.000Z</time>
      </trkpt>
      <trkpt lat="47.895922" lon="7.891680">
        <ele>1166.635629</ele>
        <time>2021-09-03T16:00:01.999Z</time>
      </trkpt>
      <trkpt lat="47.896001" lon="7.891602">
        <ele>1166.627510</ele>
        <time>2021-09-03T16:00:09.000Z</time>
      </trkpt>
      <trkpt lat="47.896085" lon="7.891524">
        <ele>1166.619029</ele>
        <time>2021-09-03T16:00:16.000Z</time>
      </trkpt>
      <trkpt lat="47.896166" lon="7.891437">
        <ele>1166.610475</ele>
        <time>2021-09-03T16:00:23.000Z</time>
      </trkpt>
      <trkpt lat="47.896242" lon="7.891354">
        <ele>1166.602402</ele>
        <time>2021-09-03T16:00:30.000Z</time>
      </trkpt>
      <trkpt lat="47.896324" lon="7.891259">
        <ele>1166.593503</ele>
        <time>2021-09-03T16:00:38.000Z</time>
      </trkpt>
      <trkpt lat="47.896401" lon="7.891171">
        <ele>1166.585189</ele>
        <time>2021-09-03T16:00:45.000Z</time>
      </trkpt>
      <trkpt lat="47.896482" lon="7.891079">
        <ele>1166.576463</ele>
        <time>2021-09-03T16:00:53.000Z</time>
      </trkpt>
      <trkpt lat="47.896560" lon="7.891007">
        <ele>1166.568602</ele>
        <time>2021-09-03T16:01:01.000Z</time>
      </trkpt>
      <trkpt lat="47.896639" lon="7.890918">
        <ele>1166.548376</ele>
        <time>2021-09-03T16:01:09.000Z</time>
      </trkpt>
      <trkpt lat="47.896717" lon="7.890826">
        <ele>1166.508579</ele>
        <time>2021-09-03T16:01:17.000Z</time>
      </trkpt>
      <trkpt lat="47.896789" lon="7.890727">
        <ele>1166.469388</ele>
        <time>2021-09-03T16:01:24.000Z</time>
      </trkpt>
      <trkpt lat="47.896868" lon="7.890640">
        <ele>1166.430087</ele>
        <time>2021-09-03T16:01:30.000Z</time>
      </trkpt>
      <trkpt lat="47.896947" lon="7.890559">
        <ele>1166.391721</ele>
        <time>2021-09-03T16:01:36.000Z</time>
      </trkpt>
      <trkpt lat="47.897024" lon="7.890442">
        <ele>1166.347730</ele>
        <time>2021-09-03T16:01:43.000Z</time>
      </trkpt>
      <trkpt lat="47.897100" lon="7.890343">
        <ele>1166.307347</ele>
        <time>2021-09-03T16:01:49.000Z</time>
      </trkpt>
      <trkpt lat="47.897164" lon="7.890235">
        <ele>1166.268671</ele>
        <time>2021-09-03T16:01:55.000Z</time>
      </trkpt>
      <trkpt lat="47.897235" lon="7.890148">
        <ele>1166.231897</ele>
        <time>2021-09-03T16:02:01.000Z</time>
      </trkpt>
      <trkpt lat="47.897312" lon="7.890067">
        <ele>1166.194188</ele>
        <time>2021-09-03T16:02:07.000Z</time>
      </trkpt>
      <trkpt lat="47.897392" lon="7.889973">
        <ele>1166.153430</ele>
        <time>2021-09-03T16:02:14.000Z</time>
      </trkpt>
      <trkpt lat="47.897457" lon="7.889860">
        <ele>1166.113480</ele>
        <time>2021-09-03T16:02:21.000Z</time>
      </trkpt>
      <trkpt lat="47.897542" lon="7.889789">
        <ele>1166.074491</ele>
        <time>2021-09-03T16:02:27.000Z</time>
      </trkpt>
      <trkpt lat="47.897632" lon="7.889712">
        <ele>1166.032967</ele>
        <time>2021-09-03T16:02:34.000Z</time>
      </trkpt>
      <trkpt lat="47.897703" lon="7.889626">
        <ele>1165.996363</ele>
        <time>2021-09-03T16:02:52.000Z</time>
      </trkpt>
      <trkpt lat="47.897790" lon="7.889587">
        <ele>1165.960007</ele>
        <time>2021-09-03T16:02:58.000Z</time>
      </trkpt>
      <trkpt lat="47.897884" lon="7.889553">
        <ele>1165.921297</ele>
        <time>2021-09-03T16:03:04.000Z</time>
      </trkpt>
      <trkpt lat="47.897975" lon="7.889503">
        <ele>1165.882486</ele>
        <time>2021-09-03T16:03:10.000Z</time>
      </trkpt>
      <trkpt lat="47.898066" lon="7.889437">
        <ele>1165.846281</ele>
        <time>2021-09-03T16:03:17.000Z</time>
      </trkpt>
      <trkpt lat="47.898155" lon="7.889414">
        <ele>1165.913605</ele>
        <time>2021-09-03T16:03:23.000Z</time>
      </trkpt>
      <trkpt lat="47.898255" lon="7.889365">
        <ele>1165.992059</ele>
        <time>2021-09-03T16:03:30.000Z</time>
      </trkpt>
      <trkpt lat="47.898341" lon="7.889317">
        <ele>1166.060499</ele>
        <time>2021-09-03T16:03:36.000Z</time>
      </trkpt>
      <trkpt lat="47.898441" lon="7.889281">
        <ele>1166.137174</ele>
        <time>2021-09-03T16:03:43.000Z</time>
      </trkpt>
      <trkpt lat="47.898530" lon="7.889239">
        <ele>1166.206751</ele>
        <time>2021-09-03T16:03:50.000Z</time>
      </trkpt>
      <trkpt lat="47.898618" lon="7.889204">
        <ele>1166.274633</ele>
        <time>2021-09-03T16:04:18.999Z</time>
      </trkpt>
      <trkpt lat="47.898706" lon="7.889164">
        <ele>1166.343202</ele>
        <time>2021-09-03T16:04:40.000Z</time>
      </trkpt>
      <trkpt lat="47.898794" lon="7.889105">
        <ele>1166.415114</ele>
        <time>2021-09-03T16:04:48.000Z</time>
      </trkpt>
      <trkpt lat="47.898900" lon="7.889076">
        <ele>1166.495439</ele>
        <time>2021-09-03T16:04:56.000Z</time>
      </trkpt>
      <trkpt lat="47.898993" lon="7.889040">
        <ele>1166.567052</ele>
        <time>2021-09-03T16:05:03.000Z</time>
      </trkpt>
      <trkpt lat="47.899096" lon="7.889001">
        <ele>1166.646258</ele>
        <time>2021-09-03T16:05:10.000Z</time>
      </trkpt>
      <trkpt lat="47.899197" lon="7.888954">
        <ele>1166.725117</ele>
        <time>2021-09-03T16:05:17.000Z</time>
      </trkpt>
      <trkpt lat="47.899285" lon="7.888900">
        <ele>1166.796041</ele>
        <time>2021-09-03T16:05:23.000Z</time>
      </trkpt>
      <trkpt lat="47.899378" lon="7.888860">
        <ele>1166.868183</ele>
        <time>2021-09-03T16:05:29.000Z</time>
      </trkpt>
      <trkpt lat="47.899459" lon="7.888798">
        <ele>1166.936041</ele>
        <time>2021-09-03T16:05:35.000Z</time>
      </trkpt>
      <trkpt lat="47.899542" lon="7.888746">
        <ele>1167.003140</ele>
        <time>2021-09-03T16:05:41.000Z</time>
      </trkpt>
      <trkpt lat="47.899631" lon="7.888699">
        <ele>1167.073511</ele>
        <time>2021-09-03T16:05:47.000Z</time>
      </trkpt>
      <trkpt lat="47.899711" lon="7.888630">
        <ele>1167.142390</ele>
        <time>2021-09-03T16:05:53.000Z</time>
      </trkpt>
      <trkpt lat="47.899787" lon="7.888558">
        <ele>1167.215801</ele>
        <time>2021-09-03T16:05:59.000Z</time>
      </trkpt>
      <trkpt lat="47.899879" lon="7.888494">
        <ele>1167.310247</ele>
        <time>2021-09-03T16:06:05.999Z</time>
      </trkpt>
      <trkpt lat="47.899975" lon="7.888423">
        <ele>1167.409940</ele>
        <time>2021-09-03T16:06:12.999Z</time>
      </trkpt>
      <trkpt lat="47.900060" lon="7.888345">
        <ele>1167.502790</ele>
        <time>2021-09-03T16:06:19.999Z</time>
      </trkpt>
      <trkpt lat="47.900146" lon="7.888265">
        <ele>1167.597087</ele>
        <time>2021-09-03T16:06:27.000Z</time>
      </trkpt>
      <trkpt lat="47.900211" lon="7.888173">
        <ele>1167.680455</ele>
        <time>2021-09-03T16:06:33.000Z</time>
      </trkpt>
      <trkpt lat="47.900271" lon="7.888051">
        <ele>1167.774832</ele>
        <time>2021-09-03T16:06:40.000Z</time>
      </trkpt>
      <trkpt lat="47.900348" lon="7.887948">
        <ele>1167.871059</ele>
        <time>2021-09-03T16:06:47.000Z</time>
      </trkpt>
      <trkpt lat="47.900420" lon="7.887844">
        <ele>1167.964308</ele>
        <time>2021-09-03T16:06:54.000Z</time>
      </trkpt>
      <trkpt lat="47.900503" lon="7.887744">
        <ele>1168.063574</ele>
        <time>2021-09-03T16:07:01.000Z</time>
      </trkpt>
      <trkpt lat="47.900580" lon="7.887659">
        <ele>1168.152698</ele>
        <time>2021-09-03T16:07:08.000Z</time>
      </trkpt>
      <trkpt lat="47.900652" lon="7.887552">
        <ele>1168.247258</ele>
        <time>2021-09-03T16:07:15.000Z</time>
      </trkpt>
      <trkpt lat="47.900727" lon="7.887474">
        <ele>1168.332323</ele>
        <time>2021-09-03T16:07:21.000Z</time>
      </trkpt>
      <trkpt lat="47.900819" lon="7.887411">
        <ele>1168.426507</ele>
        <time>2021-09-03T16:07:28.000Z</time>
      </trkpt>
      <trkpt lat="47.900897" lon="7.887343">
        <ele>1168.510563</ele>
        <time>2021-09-03T16:07:34.000Z</time>
      </trkpt>
      <trkpt lat="47.900988" lon="7.887271">
        <ele>1168.606401</ele>
        <time>2021-09-03T16:07:41.000Z</time>
      </trkpt>
      <trkpt lat="47.901076" lon="7.887230">
        <ele>1168.692175</ele>
        <time>2021-09-03T16:07:48.000Z</time>
      </trkpt>
      <trkpt lat="47.901170" lon="7.887207">
        <ele>1168.780800</ele>
        <time>2021-09-03T16:07:54.999Z</time>
      </trkpt>
      <trkpt lat="47.901275" lon="7.887222">
        <ele>1168.963697</ele>
        <time>2021-09-03T16:08:02.999Z</time>
      </trkpt>
      <trkpt lat="47.901370" lon="7.887279">
        <ele>1169.436024</ele>
        <time>2021-09-03T16:08:10.999Z</time>
      </trkpt>
      <trkpt lat="47.901462" lon="7.887268">
        <ele>1169.861753</ele>
        <time>2021-09-03T16:08:26.999Z</time>
      </trkpt>
      <trkpt lat="47.901553" lon="7.887235">
        <ele>1170.293733</ele>
        <time>2021-09-03T16:08:34.000Z</time>
      </trkpt>
      <trkpt lat="47.901648" lon="7.887219">
        <ele>1170.734723</ele>
        <time>2021-09-03T16:08:40.000Z</time>
      </trkpt>
      <trkpt lat="47.901744" lon="7.887162">
        <ele>1171.211333</ele>
        <time>2021-09-03T16:08:47.000Z</time>
      </trkpt>
      <trkpt lat="47.901829" lon="7.887111">
        <ele>1171.633941</ele>
        <time>2021-09-03T16:08:53.000Z</time>
      </trkpt>
      <trkpt lat="47.901915" lon="7.887064">
        <ele>1172.056419</ele>
        <time>2021-09-03T16:08:59.000Z</time>
      </trkpt>
      <trkpt lat="47.902015" lon="7.887029">
        <ele>1172.530215</ele>
        <time>2021-09-03T16:09:06.000Z</time>
      </trkpt>
      <trkpt lat="47.902112" lon="7.886980">
        <ele>1173.002607</ele>
        <time>2021-09-03T16:09:13.000Z</time>
      </trkpt>
      <trkpt lat="47.902204" lon="7.886924">
        <ele>1173.460947</ele>
        <time>2021-09-03T16:09:20.000Z</time>
      </trkpt>
      <trkpt lat="47.902295" lon="7.886846">
        <ele>1173.945066</ele>
        <time>2021-09-03T16:09:28.000Z</time>
      </trkpt>
      <trkpt lat="47.902381" lon="7.886771">
        <ele>1174.404580</ele>
        <time>2021-09-03T16:09:36.000Z</time>
      </trkpt>
      <trkpt lat="47.902452" lon="7.886685">
        <ele>1174.826457</ele>
        <time>2021-09-03T16:10:13.999Z</time>
      </trkpt>
      <trkpt lat="47.902545" lon="7.886653">
        <ele>1175.266702</ele>
        <time>2021-09-03T16:10:21.999Z</time>
      </trkpt>
      <trkpt lat="47.902636" lon="7.886629">
        <ele>1175.692967</ele>
        <time>2021-09-03T16:10:27.999Z</time>
      </trkpt>
      <trkpt lat="47.902739" lon="7.886628">
        <ele>1176.168083</ele>
        <time>2021-09-03T16:10:33.999Z</time>
      </trkpt>
      <trkpt lat="47.902831" lon="7.886631">
        <ele>1176.592552</ele>
        <time>2021-09-03T16:10:39.999Z</time>
      </trkpt>
      <trkpt lat="47.902926" lon="7.886646">
        <ele>1177.033205</ele>
        <time>2021-09-03T16:10:45.999Z</time>
      </trkpt>
      <trkpt lat="47.903016" lon="7.886682">
        <ele>1177.373469</ele>
        <time>2021-09-03T16:10:52.000Z</time>
      </trkpt>
      <trkpt lat="47.903114" lon="7.886727">
        <ele>1177.709348</ele>
        <time>2021-09-03T16:10:59.000Z</time>
      </trkpt>
      <trkpt lat="47.903206" lon="7.886783">
        <ele>1178.034831</ele>
        <time>2021-09-03T16:11:06.000Z</time>
      </trkpt>
      <trkpt lat="47.903303" lon="7.886821">
        <ele>1178.363343</ele>
        <time>2021-09-03T16:11:13.000Z</time>
      </trkpt>
      <trkpt lat="47.903387" lon="7.886887">
        <ele>1178.674334</ele>
        <time>2021-09-03T16:11:20.000Z</time>
      </trkpt>
      <trkpt lat="47.903473" lon="7.886944">
        <ele>1178.982595</ele>
        <time>2021-09-03T16:11:27.000Z</time>
      </trkpt>
      <trkpt lat="47.903547" lon="7.887024">
        <ele>1179.281957</ele>
        <time>2021-09-03T16:11:34.000Z</time>
      </trkpt>
      <trkpt lat="47.903614" lon="7.887135">
        <ele>1179.609950</ele>
        <time>2021-09-03T16:11:40.999Z</time>
      </trkpt>
      <trkpt lat="47.903685" lon="7.887239">
        <ele>1179.935902</ele>
        <time>2021-09-03T16:11:47.999Z</time>
      </trkpt>
      <trkpt lat="47.903744" lon="7.887348">
        <ele>1180.243540</ele>
        <time>2021-09-03T16:11:54.999Z</time>
      </trkpt>
      <trkpt lat="47.903815" lon="7.887448">
        <ele>1180.563399</ele>
        <time>2021-09-03T16:12:01.999Z</time>
      </trkpt>
      <trkpt lat="47.903878" lon="7.887554">
        <ele>1180.874473</ele>
        <time>2021-09-03T16:12:08.999Z</time>
      </trkpt>
      <trkpt lat="47.903951" lon="7.887661">
        <ele>1181.209714</ele>
        <time>2021-09-03T16:12:15.999Z</time>
      </trkpt>
      <trkpt lat="47.904019" lon="7.887751">
        <ele>1181.507495</ele>
        <time>2021-09-03T16:12:22.999Z</time>
      </trkpt>
      <trkpt lat="47.904092" lon="7.887843">
        <ele>1181.820532</ele>
        <time>2021-09-03T16:12:29.999Z</time>
      </trkpt>
      <trkpt lat="47.904157" lon="7.887943">
        <ele>1182.126397</ele>
        <time>2021-09-03T16:12:36.999Z</time>
      </trkpt>
      <trkpt lat="47.904223" lon="7.888039">
        <ele>1182.428355</ele>
        <time>2021-09-03T16:12:43.999Z</time>
      </trkpt>
      <trkpt lat="47.904287" lon="7.888145">
        <ele>1182.741611</ele>
        <time>2021-09-03T16:12:51.000Z</time>
      </trkpt>
      <trkpt lat="47.904373" lon="7.888218">
        <ele>1183.076015</ele>
        <time>2021-09-03T16:12:58.000Z</time>
      </trkpt>
      <trkpt lat="47.904453" lon="7.888299">
        <ele>1183.556187</ele>
        <time>2021-09-03T16:13:05.000Z</time>
      </trkpt>
      <trkpt lat="47.904530" lon="7.888381">
        <ele>1184.026033</ele>
        <time>2021-09-03T16:13:30.000Z</time>
      </trkpt>
      <trkpt lat="47.904605" lon="7.888467">
        <ele>1184.495825</ele>
        <time>2021-09-03T16:13:38.000Z</time>
      </trkpt>
      <trkpt lat="47.904686" lon="7.888553">
        <ele>1184.989577</ele>
        <time>2021-09-03T16:13:45.000Z</time>
      </trkpt>
      <trkpt lat="47.904762" lon="7.888647">
        <ele>1185.479872</ele>
        <time>2021-09-03T16:13:52.000Z</time>
      </trkpt>
      <trkpt lat="47.904840" lon="7.888725">
        <ele>1185.946223</ele>
        <time>2021-09-03T16:13:58.000Z</time>
      </trkpt>
      <trkpt lat="47.904924" lon="7.888790">
        <ele>1186.416172</ele>
        <time>2021-09-03T16:14:05.000Z</time>
      </trkpt>
      <trkpt lat="47.904972" lon="7.888904">
        <ele>1186.864351</ele>
        <time>2021-09-03T16:14:11.000Z</time>
      </trkpt>
      <trkpt lat="47.905035" lon="7.889008">
        <ele>1187.331005</ele>
        <time>2021-09-03T16:14:17.000Z</time>
      </trkpt>
      <trkpt lat="47.905100" lon="7.889117">
        <ele>1187.816684</ele>
        <time>2021-09-03T16:14:24.000Z</time>
      </trkpt>
      <trkpt lat="47.905163" lon="7.889233">
        <ele>1188.313701</ele>
        <time>2021-09-03T16:14:31.000Z</time>
      </trkpt>
      <trkpt lat="47.905229" lon="7.889342">
        <ele>1188.802694</ele>
        <time>2021-09-03T16:14:38.000Z</time>
      </trkpt>
      <trkpt lat="47.905302" lon="7.889438">
        <ele>1189.285989</ele>
        <time>2021-09-03T16:14:45.000Z</time>
      </trkpt>
      <trkpt lat="47.905366" lon="7.889535">
        <ele>1189.739093</ele>
        <time>2021-09-03T16:14:52.000Z</time>
      </trkpt>
      <trkpt lat="47.905438" lon="7.889632">
        <ele>1190.220899</ele>
        <time>2021-09-03T16:14:59.000Z</time>
      </trkpt>
      <trkpt lat="47.905504" lon="7.889728">
        <ele>1190.678694</ele>
        <time>2021-09-03T16:15:06.000Z</time>
      </trkpt>
      <trkpt lat="47.905580" lon="7.889820">
        <ele>1191.164763</ele>
        <time>2021-09-03T16:15:13.000Z</time>
      </trkpt>
      <trkpt lat="47.905654" lon="7.889908">
        <ele>1191.634746</ele>
        <time>2021-09-03T16:15:20.000Z</time>
      </trkpt>
      <trkpt lat="47.905749" lon="7.889946">
        <ele>1192.207429</ele>
        <time>2021-09-03T16:15:28.000Z</time>
      </trkpt>
      <trkpt lat="47.905837" lon="7.890004">
        <ele>1192.962869</ele>
        <time>2021-09-03T16:15:35.000Z</time>
      </trkpt>
      <trkpt lat="47.905904" lon="7.890108">
        <ele>1193.722123</ele>
        <time>2021-09-03T16:15:42.000Z</time>
      </trkpt>
      <trkpt lat="47.905964" lon="7.890221">
        <ele>1194.480914</ele>
        <time>2021-09-03T16:15:50.000Z</time>
      </trkpt>
      <trkpt lat="47.906016" lon="7.890341">
        <ele>1195.233049</ele>
        <time>2021-09-03T16:15:57.000Z</time>
      </trkpt>
      <trkpt lat="47.906071" lon="7.890455">
        <ele>1195.972372</ele>
        <time>2021-09-03T16:16:04.000Z</time>
      </trkpt>
      <trkpt lat="47.906134" lon="7.890565">
        <ele>1196.733934</ele>
        <time>2021-09-03T16:16:12.000Z</time>
      </trkpt>
      <trkpt lat="47.906197" lon="7.890680">
        <ele>1197.515693</ele>
        <time>2021-09-03T16:16:20.000Z</time>
      </trkpt>
      <trkpt lat="47.906262" lon="7.890781">
        <ele>1198.252677</ele>
        <time>2021-09-03T16:16:27.000Z</time>
      </trkpt>
      <trkpt lat="47.906321" lon="7.890894">
        <ele>1199.006614</ele>
        <time>2021-09-03T16:16:35.000Z</time>
      </trkpt>
      <trkpt lat="47.906392" lon="7.890999">
        <ele>1199.791653</ele>
        <time>2021-09-03T16:16:42.000Z</time>
      </trkpt>
      <trkpt lat="47.906475" lon="7.891102">
        <ele>1200.639417</ele>
        <time>2021-09-03T16:16:50.000Z</time>
      </trkpt>
      <trkpt lat="47.906533" lon="7.891219">
        <ele>1201.405377</ele>
        <time>2021-09-03T16:16:58.000Z</time>
      </trkpt>
      <trkpt lat="47.906614" lon="7.891307">
        <ele>1202.192206</ele>
        <time>2021-09-03T16:17:05.000Z</time>
      </trkpt>
      <trkpt lat="47.906692" lon="7.891407">
        <ele>1202.999791</ele>
        <time>2021-09-03T16:17:13.000Z</time>
      </trkpt>
      <trkpt lat="47.906758" lon="7.891516">
        <ele>1203.772943</ele>
        <time>2021-09-03T16:17:21.000Z</time>
      </trkpt>
      <trkpt lat="47.906816" lon="7.891626">
        <ele>1204.509601</ele>
        <time>2021-09-03T16:17:28.000Z</time>
      </trkpt>
      <trkpt lat="47.906899" lon="7.891706">
        <ele>1205.285541</ele>
        <time>2021-09-03T16:17:36.000Z</time>
      </trkpt>
      <trkpt lat="47.906921" lon="7.891840">
        <ele>1206.011720</ele>
        <time>2021-09-03T16:18:27.000Z</time>
      </trkpt>
      <trkpt lat="47.907004" lon="7.891919">
        <ele>1206.182976</ele>
        <time>2021-09-03T16:18:34.000Z</time>
      </trkpt>
      <trkpt lat="47.907084" lon="7.892000">
        <ele>1206.273294</ele>
        <time>2021-09-03T16:18:41.000Z</time>
      </trkpt>
      <trkpt lat="47.907159" lon="7.892090">
        <ele>1206.363208</ele>
        <time>2021-09-03T16:18:48.000Z</time>
      </trkpt>
      <trkpt lat="47.907244" lon="7.892169">
        <ele>1206.456759</ele>
        <time>2021-09-03T16:18:56.000Z</time>
      </trkpt>
      <trkpt lat="47.907308" lon="7.892278">
        <ele>1206.547494</ele>
        <time>2021-09-03T16:19:04.000Z</time>
      </trkpt>
      <trkpt lat="47.907402" lon="7.892339">
        <ele>1206.643251</ele>
        <time>2021-09-03T16:19:13.000Z</time>
      </trkpt>
      <trkpt lat="47.907487" lon="7.892387">
        <ele>1206.728152</ele>
        <time>2021-09-03T16:19:20.000Z</time>
      </trkpt>
      <trkpt lat="47.907581" lon="7.892441">
        <ele>1206.822246</ele>
        <time>2021-09-03T16:19:27.000Z</time>
      </trkpt>
      <trkpt lat="47.907675" lon="7.892495">
        <ele>1206.916341</ele>
        <time>2021-09-03T16:19:34.000Z</time>
      </trkpt>
      <trkpt lat="47.907775" lon="7.892532">
        <ele>1207.012585</ele>
        <time>2021-09-03T16:19:41.000Z</time>
      </trkpt>
      <trkpt lat="47.907870" lon="7.892579">
        <ele>1207.106081</ele>
        <time>2021-09-03T16:19:48.000Z</time>
      </trkpt>
      <trkpt lat="47.907970" lon="7.892612">
        <ele>1207.201753</ele>
        <time>2021-09-03T16:19:56.000Z</time>
      </trkpt>
      <trkpt lat="47.908068" lon="7.892624">
        <ele>1207.293607</ele>
        <time>2021-09-03T16:20:09.000Z</time>
      </trkpt>
      <trkpt lat="47.908159" lon="7.892645">
        <ele>1207.379624</ele>
        <time>2021-09-03T16:20:16.000Z</time>
      </trkpt>
      <trkpt lat="47.908250" lon="7.892602">
        <ele>1207.468793</ele>
        <time>2021-09-03T16:20:22.000Z</time>
      </trkpt>
      <trkpt lat="47.908344" lon="7.892556">
        <ele>1207.561206</ele>
        <time>2021-09-03T16:20:28.000Z</time>
      </trkpt>
      <trkpt lat="47.908437" lon="7.892499">
        <ele>1207.655127</ele>
        <time>2021-09-03T16:20:34.000Z</time>
      </trkpt>
      <trkpt lat="47.908527" lon="7.892531">
        <ele>1207.741554</ele>
        <time>2021-09-03T16:20:40.000Z</time>
      </trkpt>
      <trkpt lat="47.908601" lon="7.892631">
        <ele>1208.224583</ele>
        <time>2021-09-03T16:21:07.000Z</time>
      </trkpt>
      <trkpt lat="47.908650" lon="7.892506">
        <ele>1208.982928</ele>
        <time>2021-09-03T16:21:36.000Z</time>
      </trkpt>
      <trkpt lat="47.908753" lon="7.892484">
        <ele>1209.795845</ele>
        <time>2021-09-03T16:21:43.000Z</time>
      </trkpt>
      <trkpt lat="47.908826" lon="7.892404">
        <ele>1210.503518</ele>
        <time>2021-09-03T16:21:50.000Z</time>
      </trkpt>
      <trkpt lat="47.908908" lon="7.892315">
        <ele>1211.295770</ele>
        <time>2021-09-03T16:22:04.000Z</time>
      </trkpt>
      <trkpt lat="47.908979" lon="7.892200">
        <ele>1212.114551</ele>
        <time>2021-09-03T16:22:13.000Z</time>
      </trkpt>
      <trkpt lat="47.909049" lon="7.892105">
        <ele>1212.853879</ele>
        <time>2021-09-03T16:22:22.000Z</time>
      </trkpt>
      <trkpt lat="47.909133" lon="7.892049">
        <ele>1213.572695</ele>
        <time>2021-09-03T16:22:30.000Z</time>
      </trkpt>
      <trkpt lat="47.909210" lon="7.891958">
        <ele>1214.340164</ele>
        <time>2021-09-03T16:22:39.000Z</time>
      </trkpt>
      <trkpt lat="47.909275" lon="7.891831">
        <ele>1215.176963</ele>
        <time>2021-09-03T16:22:47.000Z</time>
      </trkpt>
      <trkpt lat="47.909354" lon="7.891752">
        <ele>1215.920000</ele>
        <time>2021-09-03T16:22:56.000Z</time>
      </trkpt>
      <trkpt lat="47.909315" lon="7.891886">
        <ele>1216.685042</ele>
        <time>2021-09-03T16:23:17.000Z</time>
      </trkpt>
      <trkpt lat="47.909248" lon="7.891986">
        <ele>1217.425485</ele>
        <time>2021-09-03T16:23:27.000Z</time>
      </trkpt>
      <trkpt lat="47.909221" lon="7.892137">
        <ele>1218.243913</ele>
        <time>2021-09-03T16:23:34.000Z</time>
      </trkpt>
      <trkpt lat="47.909215" lon="7.892274">
        <ele>1218.962902</ele>
        <time>2021-09-03T16:23:41.000Z</time>
      </trkpt>
      <trkpt lat="47.909184" lon="7.892417">
        <ele>1219.749974</ele>
        <time>2021-09-03T16:23:49.000Z</time>
      </trkpt>
      <trkpt lat="47.909238" lon="7.892535">
        <ele>1220.498212</ele>
        <time>2021-09-03T16:23:57.000Z</time>
      </trkpt>
      <trkpt lat="47.909311" lon="7.892435">
        <ele>1221.272505</ele>
        <time>2021-09-03T16:24:05.000Z</time>
      </trkpt>
      <trkpt lat="47.909378" lon="7.892346">
        <ele>1222.010664</ele>
        <time>2021-09-03T16:24:14.000Z</time>
      </trkpt>
      <trkpt lat="47.909460" lon="7.892268">
        <ele>1222.973939</ele>
        <time>2021-09-03T16:24:23.000Z</time>
      </trkpt>
      <trkpt lat="47.909558" lon="7.892258">
        <ele>1223.946910</ele>
        <time>2021-09-03T16:24:31.000Z</time>
      </trkpt>
      <trkpt lat="47.909628" lon="7.892170">
        <ele>1224.853617</ele>
        <time>2021-09-03T16:24:41.000Z</time>
      </trkpt>
      <trkpt lat="47.909710" lon="7.892061">
        <ele>1225.941476</ele>
        <time>2021-09-03T16:24:47.000Z</time>
      </trkpt>
      <trkpt lat="47.909788" lon="7.892154">
        <ele>1226.930503</ele>
        <time>2021-09-03T16:25:24.000Z</time>
      </trkpt>
      <trkpt lat="47.909871" lon="7.892231">
        <ele>1227.898619</ele>
        <time>2021-09-03T16:25:34.000Z</time>
      </trkpt>
      <trkpt lat="47.909936" lon="7.892329">
        <ele>1228.813977</ele>
        <time>2021-09-03T16:25:42.000Z</time>
      </trkpt>
      <trkpt lat="47.910005" lon="7.892441">
        <ele>1229.823960</ele>
        <time>2021-09-03T16:25:50.000Z</time>
      </trkpt>
      <trkpt lat="47.910065" lon="7.892550">
        <ele>1230.760406</ele>
        <time>2021-09-03T16:25:57.000Z</time>
      </trkpt>
      <trkpt lat="47.910100" lon="7.892684">
        <ele>1231.715240</ele>
        <time>2021-09-03T16:26:04.000Z</time>
      </trkpt>
      <trkpt lat="47.910113" lon="7.892820">
        <ele>1232.627329</ele>
        <time>2021-09-03T16:26:12.000Z</time>
      </trkpt>
      <trkpt lat="47.910126" lon="7.892967">
        <ele>1233.611773</ele>
        <time>2021-09-03T16:26:19.000Z</time>
      </trkpt>
      <trkpt lat="47.910155" lon="7.893116">
        <ele>1234.641897</ele>
        <time>2021-09-03T16:26:29.000Z</time>
      </trkpt>
      <trkpt lat="47.910169" lon="7.893281">
        <ele>1235.746132</ele>
        <time>2021-09-03T16:26:39.000Z</time>
      </trkpt>
      <trkpt lat="47.910195" lon="7.893416">
        <ele>1236.678709</ele>
        <time>2021-09-03T16:26:47.000Z</time>
      </trkpt>
      <trkpt lat="47.910230" lon="7.893549">
        <ele>1237.627358</ele>
        <time>2021-09-03T16:26:55.000Z</time>
      </trkpt>
      <trkpt lat="47.910255" lon="7.893687">
        <ele>1238.576461</ele>
        <time>2021-09-03T16:27:02.999Z</time>
      </trkpt>
      <trkpt lat="47.910285" lon="7.893814">
        <ele>1239.470486</ele>
        <time>2021-09-03T16:27:09.999Z</time>
      </trkpt>
      <trkpt lat="47.910319" lon="7.893939">
        <ele>1240.440330</ele>
        <time>2021-09-03T16:27:16.999Z</time>
      </trkpt>
      <trkpt lat="47.910341" lon="7.894094">
        <ele>1241.601234</ele>
        <time>2021-09-03T16:27:25.999Z</time>
      </trkpt>
      <trkpt lat="47.910343" lon="7.894236">
        <ele>1242.641931</ele>
        <time>2021-09-03T16:27:35.000Z</time>
      </trkpt>
      <trkpt lat="47.910354" lon="7.894386">
        <ele>1243.747574</ele>
        <time>2021-09-03T16:27:42.000Z</time>
      </trkpt>
      <trkpt lat="47.910381" lon="7.894532">
        <ele>1244.857318</ele>
        <time>2021-09-03T16:27:49.000Z</time>
      </trkpt>
      <trkpt lat="47.910391" lon="7.894681">
        <ele>1245.954533</ele>
        <time>2021-09-03T16:27:57.000Z</time>
      </trkpt>
      <trkpt lat="47.910424" lon="7.894814">
        <ele>1246.993678</ele>
        <time>2021-09-03T16:28:05.000Z</time>
      </trkpt>
      <trkpt lat="47.910444" lon="7.894951">
        <ele>1248.021039</ele>
        <time>2021-09-03T16:28:13.000Z</time>
      </trkpt>
      <trkpt lat="47.910489" lon="7.895081">
        <ele>1249.093096</ele>
        <time>2021-09-03T16:28:21.000Z</time>
      </trkpt>
      <trkpt lat="47.910526" lon="7.895219">
        <ele>1250.182143</ele>
        <time>2021-09-03T16:28:28.000Z</time>
      </trkpt>
      <trkpt lat="47.910555" lon="7.895358">
        <ele>1251.248820</ele>
        <time>2021-09-03T16:28:35.000Z</time>
      </trkpt>
      <trkpt lat="47.910604" lon="7.895499">
        <ele>1252.412554</ele>
        <time>2021-09-03T16:28:42.000Z</time>
      </trkpt>
      <trkpt lat="47.910634" lon="7.895630">
        <ele>1253.426892</ele>
        <time>2021-09-03T16:28:49.000Z</time>
      </trkpt>
      <trkpt lat="47.910651" lon="7.895768">
        <ele>1254.454979</ele>
        <time>2021-09-03T16:28:58.000Z</time>
      </trkpt>
      <trkpt lat="47.910660" lon="7.895910">
        <ele>1255.500080</ele>
        <time>2021-09-03T16:29:07.000Z</time>
      </trkpt>
      <trkpt lat="47.910667" lon="7.896045">
        <ele>1256.492206</ele>
        <time>2021-09-03T16:29:13.000Z</time>
      </trkpt>
      <trkpt lat="47.910707" lon="7.896183">
        <ele>1257.593850</ele>
        <time>2021-09-03T16:29:19.999Z</time>
      </trkpt>
      <trkpt lat="47.910740" lon="7.896318">
        <ele>1258.646744</ele>
        <time>2021-09-03T16:29:26.999Z</time>
      </trkpt>
      <trkpt lat="47.910785" lon="7.896460">
        <ele>1259.551697</ele>
        <time>2021-09-03T16:29:36.000Z</time>
      </trkpt>
      <trkpt lat="47.910848" lon="7.896585">
        <ele>1260.117701</ele>
        <time>2021-09-03T16:29:43.000Z</time>
      </trkpt>
      <trkpt lat="47.910890" lon="7.896725">
        <ele>1260.672806</ele>
        <time>2021-09-03T16:29:51.000Z</time>
      </trkpt>
      <trkpt lat="47.910938" lon="7.896848">
        <ele>1261.187903</ele>
        <time>2021-09-03T16:29:59.000Z</time>
      </trkpt>
      <trkpt lat="47.910991" lon="7.896961">
        <ele>1261.687037</ele>
        <time>2021-09-03T16:30:06.000Z</time>
      </trkpt>
      <trkpt lat="47.911031" lon="7.897101">
        <ele>1262.237818</ele>
        <time>2021-09-03T16:30:14.000Z</time>
      </trkpt>
      <trkpt lat="47.911078" lon="7.897221">
        <ele>1262.740814</ele>
        <time>2021-09-03T16:30:22.000Z</time>
      </trkpt>
      <trkpt lat="47.911146" lon="7.897328">
        <ele>1263.274441</ele>
        <time>2021-09-03T16:30:30.000Z</time>
      </trkpt>
      <trkpt lat="47.911216" lon="7.897438">
        <ele>1263.823376</ele>
        <time>2021-09-03T16:30:39.000Z</time>
      </trkpt>
      <trkpt lat="47.911294" lon="7.897527">
        <ele>1264.353575</ele>
        <time>2021-09-03T16:30:45.000Z</time>
      </trkpt>
      <trkpt lat="47.911369" lon="7.897618">
        <ele>1264.875537</ele>
        <time>2021-09-03T16:30:53.000Z</time>
      </trkpt>
      <trkpt lat="47.911466" lon="7.897657">
        <ele>1265.417957</ele>
        <time>2021-09-03T16:31:01.000Z</time>
      </trkpt>
      <trkpt lat="47.911559" lon="7.897637">
        <ele>1265.925283</ele>
        <time>2021-09-03T16:31:13.000Z</time>
      </trkpt>
      <trkpt lat="47.911624" lon="7.897743">
        <ele>1266.445219</ele>
        <time>2021-09-03T16:31:35.999Z</time>
      </trkpt>
      <trkpt lat="47.911717" lon="7.897779">
        <ele>1266.963982</ele>
        <time>2021-09-03T16:31:47.000Z</time>
      </trkpt>
      <trkpt lat="47.911805" lon="7.897815">
        <ele>1267.456661</ele>
        <time>2021-09-03T16:31:54.000Z</time>
      </trkpt>
      <trkpt lat="47.911894" lon="7.897841">
        <ele>1267.946327</ele>
        <time>2021-09-03T16:32:01.000Z</time>
      </trkpt>
      <trkpt lat="47.911989" lon="7.897850">
        <ele>1268.460295</ele>
        <time>2021-09-03T16:32:07.000Z</time>
      </trkpt>
      <trkpt lat="47.912090" lon="7.897874">
        <ele>1269.012500</ele>
        <time>2021-09-03T16:32:14.000Z</time>
      </trkpt>
      <trkpt lat="47.912188" lon="7.897863">
        <ele>1269.091558</ele>
        <time>2021-09-03T16:32:20.000Z</time>
      </trkpt>
      <trkpt lat="47.912276" lon="7.897818">
        <ele>1269.157661</ele>
        <time>2021-09-03T16:32:28.000Z</time>
      </trkpt>
      <trkpt lat="47.912368" lon="7.897797">
        <ele>1269.223797</ele>
        <time>2021-09-03T16:32:34.000Z</time>
      </trkpt>
      <trkpt lat="47.912464" lon="7.897766">
        <ele>1269.293593</ele>
        <time>2021-09-03T16:32:41.000Z</time>
      </trkpt>
      <trkpt lat="47.912567" lon="7.897755">
        <ele>1269.366972</ele>
        <time>2021-09-03T16:32:49.000Z</time>
      </trkpt>
      <trkpt lat="47.912660" lon="7.897705">
        <ele>1269.437217</ele>
        <time>2021-09-03T16:32:55.000Z</time>
      </trkpt>
      <trkpt lat="47.912750" lon="7.897671">
        <ele>1269.503189</ele>
        <time>2021-09-03T16:33:03.000Z</time>
      </trkpt>
      <trkpt lat="47.912854" lon="7.897644">
        <ele>1269.578201</ele>
        <time>2021-09-03T16:33:09.000Z</time>
      </trkpt>
      <trkpt lat="47.912945" lon="7.897603">
        <ele>1269.645750</ele>
        <time>2021-09-03T16:33:17.000Z</time>
      </trkpt>
      <trkpt lat="47.913051" lon="7.897582">
        <ele>1269.721734</ele>
        <time>2021-09-03T16:33:23.000Z</time>
      </trkpt>
      <trkpt lat="47.913139" lon="7.897611">
        <ele>1269.785773</ele>
        <time>2021-09-03T16:33:33.000Z</time>
      </trkpt>
      <trkpt lat="47.913069" lon="7.897702">
        <ele>1269.851749</ele>
        <time>2021-09-03T16:33:43.999Z</time>
      </trkpt>
      <trkpt lat="47.912979" lon="7.897745">
        <ele>1269.918901</ele>
        <time>2021-09-03T16:33:57.000Z</time>
      </trkpt>
      <trkpt lat="47.912889" lon="7.897796">
        <ele>1269.987312</ele>
        <time>2021-09-03T16:34:05.000Z</time>
      </trkpt>
      <trkpt lat="47.912801" lon="7.897865">
        <ele>1270.057954</ele>
        <time>2021-09-03T16:34:13.000Z</time>
      </trkpt>
      <trkpt lat="47.912719" lon="7.897936">
        <ele>1270.125325</ele>
        <time>2021-09-03T16:34:20.000Z</time>
      </trkpt>
      <trkpt lat="47.912637" lon="7.898005">
        <ele>1270.192222</ele>
        <time>2021-09-03T16:34:30.000Z</time>
      </trkpt>
      <trkpt lat="47.912545" lon="7.898052">
        <ele>1270.261323</ele>
        <time>2021-09-03T16:34:41.000Z</time>
      </trkpt>
      <trkpt lat="47.912463" lon="7.898120">
        <ele>1270.204848</ele>
        <time>2021-09-03T16:34:56.000Z</time>
      </trkpt>
      <trkpt lat="47.912376" lon="7.898179">
        <ele>1269.960281</ele>
        <time>2021-09-03T16:35:05.000Z</time>
      </trkpt>
      <trkpt lat="47.912298" lon="7.898246">
        <ele>1269.729949</ele>
        <time>2021-09-03T16:35:14.000Z</time>
      </trkpt>
      <trkpt lat="47.912233" lon="7.898341">
        <ele>1269.497087</ele>
        <time>2021-09-03T16:35:42.999Z</time>
      </trkpt>
      <trkpt lat="47.912134" lon="7.898375">
        <ele>1269.237107</ele>
        <time>2021-09-03T16:35:56.000Z</time>
      </trkpt>
      <trkpt lat="47.912100" lon="7.898502">
        <ele>1269.002528</ele>
        <time>2021-09-03T16:36:12.000Z</time>
      </trkpt>
      <trkpt lat="47.912045" lon="7.898632">
        <ele>1268.738831</ele>
        <time>2021-09-03T16:36:21.000Z</time>
      </trkpt>
      <trkpt lat="47.911969" lon="7.898712">
        <ele>1268.500800</ele>
        <time>2021-09-03T16:36:29.000Z</time>
      </trkpt>
      <trkpt lat="47.911879" lon="7.898732">
        <ele>1268.267937</ele>
        <time>2021-09-03T16:36:37.000Z</time>
      </trkpt>
      <trkpt lat="47.911896" lon="7.898866">
        <ele>1268.034003</ele>
        <time>2021-09-03T16:37:23.000Z</time>
      </trkpt>
      <trkpt lat="47.911883" lon="7.899006">
        <ele>1267.791565</ele>
        <time>2021-09-03T16:37:31.999Z</time>
      </trkpt>
      <trkpt lat="47.911895" lon="7.899151">
        <ele>1267.540955</ele>
        <time>2021-09-03T16:37:41.999Z</time>
      </trkpt>
      <trkpt lat="47.911905" lon="7.899291">
        <ele>1267.299450</ele>
        <time>2021-09-03T16:37:49.999Z</time>
      </trkpt>
      <trkpt lat="47.911937" lon="7.899425">
        <ele>1267.055445</ele>
        <time>2021-09-03T16:37:57.000Z</time>
      </trkpt>
      <trkpt lat="47.911953" lon="7.899577">
        <ele>1266.791521</ele>
        <time>2021-09-03T16:38:04.000Z</time>
      </trkpt>
      <trkpt lat="47.911951" lon="7.899732">
        <ele>1266.525597</ele>
        <time>2021-09-03T16:38:11.000Z</time>
      </trkpt>
      <trkpt lat="47.911932" lon="7.899865">
        <ele>1266.292336</ele>
        <time>2021-09-03T16:38:17.000Z</time>
      </trkpt>
      <trkpt lat="47.911949" lon="7.900013">
        <ele>1266.034768</ele>
        <time>2021-09-03T16:38:24.000Z</time>
      </trkpt>
      <trkpt lat="47.911964" lon="7.900154">
        <ele>1265.789881</ele>
        <time>2021-09-03T16:38:31.000Z</time>
      </trkpt>
      <trkpt lat="47.911987" lon="7.900299">
        <ele>1264.839628</ele>
        <time>2021-09-03T16:38:39.000Z</time>
      </trkpt>
      <trkpt lat="47.911953" lon="7.900434">
        <ele>1263.544189</ele>
        <time>2021-09-03T16:38:45.000Z</time>
      </trkpt>
      <trkpt lat="47.911951" lon="7.900577">
        <ele>1262.259389</ele>
        <time>2021-09-03T16:38:52.000Z</time>
      </trkpt>
      <trkpt lat="47.912008" lon="7.900687">
        <ele>1261.010449</ele>
        <time>2021-09-03T16:39:01.000Z</time>
      </trkpt>
      <trkpt lat="47.912101" lon="7.900697">
        <ele>1259.760875</ele>
        <time>2021-09-03T16:39:08.000Z</time>
      </trkpt>
      <trkpt lat="47.912002" lon="7.900680">
        <ele>1258.425365</ele>
        <time>2021-09-03T16:39:32.999Z</time>
      </trkpt>
      <trkpt lat="47.911950" lon="7.900799">
        <ele>1257.149330</ele>
        <time>2021-09-03T16:39:42.999Z</time>
      </trkpt>
      <trkpt lat="47.911969" lon="7.900941">
        <ele>1255.848625</ele>
        <time>2021-09-03T16:39:50.999Z</time>
      </trkpt>
      <trkpt lat="47.911991" lon="7.901084">
        <ele>1254.530703</ele>
        <time>2021-09-03T16:39:58.999Z</time>
      </trkpt>
      <trkpt lat="47.912005" lon="7.901229">
        <ele>1253.214774</ele>
        <time>2021-09-03T16:40:07.000Z</time>
      </trkpt>
      <trkpt lat="47.912017" lon="7.901365">
        <ele>1251.982594</ele>
        <time>2021-09-03T16:40:14.000Z</time>
      </trkpt>
      <trkpt lat="47.912022" lon="7.901501">
        <ele>1250.759117</ele>
        <time>2021-09-03T16:40:21.000Z</time>
      </trkpt>
      <trkpt lat="47.912046" lon="7.901640">
        <ele>1249.469767</ele>
        <time>2021-09-03T16:40:28.000Z</time>
      </trkpt>
      <trkpt lat="47.912087" lon="7.901774">
        <ele>1248.146612</ele>
        <time>2021-09-03T16:40:35.000Z</time>
      </trkpt>
      <trkpt lat="47.912138" lon="7.901891">
        <ele>1246.892946</ele>
        <time>2021-09-03T16:40:42.000Z</time>
      </trkpt>
      <trkpt lat="47.912173" lon="7.902035">
        <ele>1245.517029</ele>
        <time>2021-09-03T16:40:50.000Z</time>
      </trkpt>
      <trkpt lat="47.912198" lon="7.902180">
        <ele>1244.172148</ele>
        <time>2021-09-03T16:40:58.000Z</time>
      </trkpt>
      <trkpt lat="47.912227" lon="7.902313">
        <ele>1242.915834</ele>
        <time>2021-09-03T16:41:06.000Z</time>
      </trkpt>
      <trkpt lat="47.912247" lon="7.902457">
        <ele>1241.594860</ele>
        <time>2021-09-03T16:41:14.000Z</time>
      </trkpt>
      <trkpt lat="47.912263" lon="7.902609">
        <ele>1240.254890</ele>
        <time>2021-09-03T16:41:22.000Z</time>
      </trkpt>
      <trkpt lat="47.912284" lon="7.902746">
        <ele>1239.031009</ele>
        <time>2021-09-03T16:41:30.000Z</time>
      </trkpt>
      <trkpt lat="47.912307" lon="7.902879">
        <ele>1237.834834</ele>
        <time>2021-09-03T16:41:36.999Z</time>
      </trkpt>
      <trkpt lat="47.912358" lon="7.903002">
        <ele>1236.575288</ele>
        <time>2021-09-03T16:41:43.999Z</time>
      </trkpt>
      <trkpt lat="47.912414" lon="7.903129">
        <ele>1235.251426</ele>
        <time>2021-09-03T16:41:52.999Z</time>
      </trkpt>
      <trkpt lat="47.912474" lon="7.903254">
        <ele>1233.912504</ele>
        <time>2021-09-03T16:42:00.999Z</time>
      </trkpt>
      <trkpt lat="47.912520" lon="7.903382">
        <ele>1232.647690</ele>
        <time>2021-09-03T16:42:09.000Z</time>
      </trkpt>
      <trkpt lat="47.912578" lon="7.903502">
        <ele>1231.359294</ele>
        <time>2021-09-03T16:42:16.000Z</time>
      </trkpt>
      <trkpt lat="47.912527" lon="7.903625">
        <ele>1230.099751</ele>
        <time>2021-09-03T16:42:41.000Z</time>
      </trkpt>
      <trkpt lat="47.912435" lon="7.903617">
        <ele>1228.902390</ele>
        <time>2021-09-03T16:42:53.000Z</time>
      </trkpt>
      <trkpt lat="47.912350" lon="7.903571">
        <ele>1227.727597</ele>
        <time>2021-09-03T16:43:01.000Z</time>
      </trkpt>
      <trkpt lat="47.912257" lon="7.903567">
        <ele>1226.518770</ele>
        <time>2021-09-03T16:43:10.000Z</time>
      </trkpt>
      <trkpt lat="47.912168" lon="7.903530">
        <ele>1225.318362</ele>
        <time>2021-09-03T16:43:18.000Z</time>
      </trkpt>
      <trkpt lat="47.912075" lon="7.903510">
        <ele>1224.097549</ele>
        <time>2021-09-03T16:43:27.000Z</time>
      </trkpt>
      <trkpt lat="47.911979" lon="7.903484">
        <ele>1222.829861</ele>
        <time>2021-09-03T16:43:36.000Z</time>
      </trkpt>
      <trkpt lat="47.911877" lon="7.903449">
        <ele>1221.470002</ele>
        <time>2021-09-03T16:43:44.000Z</time>
      </trkpt>
      <trkpt lat="47.911780" lon="7.903396">
        <ele>1220.127845</ele>
        <time>2021-09-03T16:43:50.999Z</time>
      </trkpt>
      <trkpt lat="47.911692" lon="7.903358">
        <ele>1218.937556</ele>
        <time>2021-09-03T16:43:58.999Z</time>
      </trkpt>
      <trkpt lat="47.911604" lon="7.903294">
        <ele>1217.469431</ele>
        <time>2021-09-03T16:44:05.999Z</time>
      </trkpt>
      <trkpt lat="47.911509" lon="7.903241">
        <ele>1215.689086</ele>
        <time>2021-09-03T16:44:11.999Z</time>
      </trkpt>
      <trkpt lat="47.911422" lon="7.903199">
        <ele>1214.083985</ele>
        <time>2021-09-03T16:44:18.000Z</time>
      </trkpt>
      <trkpt lat="47.911327" lon="7.903193">
        <ele>1212.414924</ele>
        <time>2021-09-03T16:44:24.000Z</time>
      </trkpt>
      <trkpt lat="47.911226" lon="7.903176">
        <ele>1210.630790</ele>
        <time>2021-09-03T16:44:32.000Z</time>
      </trkpt>
      <trkpt lat="47.911130" lon="7.903130">
        <ele>1208.860888</ele>
        <time>2021-09-03T16:44:39.000Z</time>
      </trkpt>
      <trkpt lat="47.911034" lon="7.903100">
        <ele>1207.139197</ele>
        <time>2021-09-03T16:44:45.000Z</time>
      </trkpt>
      <trkpt lat="47.910936" lon="7.903098">
        <ele>1205.418809</ele>
        <time>2021-09-03T16:44:52.000Z</time>
      </trkpt>
      <trkpt lat="47.910840" lon="7.903091">
        <ele>1203.731677</ele>
        <time>2021-09-03T16:44:58.000Z</time>
      </trkpt>
      <trkpt lat="47.910740" lon="7.903080">
        <ele>1201.971578</ele>
        <time>2021-09-03T16:45:05.000Z</time>
      </trkpt>
      <trkpt lat="47.910645" lon="7.903045">
        <ele>1200.253916</ele>
        <time>2021-09-03T16:45:13.000Z</time>
      </trkpt>
      <trkpt lat="47.910554" lon="7.903047">
        <ele>1198.656389</ele>
        <time>2021-09-03T16:45:21.000Z</time>
      </trkpt>
      <trkpt lat="47.910464" lon="7.903029">
        <ele>1197.062456</ele>
        <time>2021-09-03T16:45:29.000Z</time>
      </trkpt>
      <trkpt lat="47.910364" lon="7.903023">
        <ele>1195.305703</ele>
        <time>2021-09-03T16:45:35.000Z</time>
      </trkpt>
      <trkpt lat="47.910272" lon="7.902985">
        <ele>1193.630046</ele>
        <time>2021-09-03T16:45:44.000Z</time>
      </trkpt>
      <trkpt lat="47.910170" lon="7.903012">
        <ele>1191.811641</ele>
        <time>2021-09-03T16:45:54.000Z</time>
      </trkpt>
      <trkpt lat="47.910093" lon="7.903094">
        <ele>1190.151011</ele>
        <time>2021-09-03T16:46:03.000Z</time>
      </trkpt>
      <trkpt lat="47.910006" lon="7.903164">
        <ele>1188.415931</ele>
        <time>2021-09-03T16:46:13.999Z</time>
      </trkpt>
      <trkpt lat="47.909955" lon="7.903274">
        <ele>1186.842236</ele>
        <time>2021-09-03T16:46:25.000Z</time>
      </trkpt>
      <trkpt lat="47.909883" lon="7.903360">
        <ele>1186.413440</ele>
        <time>2021-09-03T16:46:35.000Z</time>
      </trkpt>
      <trkpt lat="47.909914" lon="7.903501">
        <ele>1186.121719</ele>
        <time>2021-09-03T16:47:11.000Z</time>
      </trkpt>
      <trkpt lat="47.909998" lon="7.903558">
        <ele>1185.851071</ele>
        <time>2021-09-03T16:47:19.000Z</time>
      </trkpt>
      <trkpt lat="47.910089" lon="7.903618">
        <ele>1185.559276</ele>
        <time>2021-09-03T16:47:25.000Z</time>
      </trkpt>
      <trkpt lat="47.910184" lon="7.903667">
        <ele>1185.264472</ele>
        <time>2021-09-03T16:47:31.000Z</time>
      </trkpt>
      <trkpt lat="47.910278" lon="7.903723">
        <ele>1184.967614</ele>
        <time>2021-09-03T16:47:38.000Z</time>
      </trkpt>
      <trkpt lat="47.910365" lon="7.903768">
        <ele>1184.697554</ele>
        <time>2021-09-03T16:47:44.000Z</time>
      </trkpt>
      <trkpt lat="47.910462" lon="7.903821">
        <ele>1184.394586</ele>
        <time>2021-09-03T16:47:51.000Z</time>
      </trkpt>
      <trkpt lat="47.910554" lon="7.903827">
        <ele>1184.124504</ele>
        <time>2021-09-03T16:47:57.000Z</time>
      </trkpt>
      <trkpt lat="47.910655" lon="7.903839">
        <ele>1183.827346</ele>
        <time>2021-09-03T16:48:03.999Z</time>
      </trkpt>
      <trkpt lat="47.910744" lon="7.903866">
        <ele>1183.560979</ele>
        <time>2021-09-03T16:48:09.999Z</time>
      </trkpt>
      <trkpt lat="47.910838" lon="7.903891">
        <ele>1183.280943</ele>
        <time>2021-09-03T16:48:15.999Z</time>
      </trkpt>
      <trkpt lat="47.910943" lon="7.903918">
        <ele>1182.968451</ele>
        <time>2021-09-03T16:48:23.999Z</time>
      </trkpt>
      <trkpt lat="47.911040" lon="7.903952">
        <ele>1182.676216</ele>
        <time>2021-09-03T16:48:31.000Z</time>
      </trkpt>
      <trkpt lat="47.911140" lon="7.903943">
        <ele>1182.382396</ele>
        <time>2021-09-03T16:48:39.000Z</time>
      </trkpt>
      <trkpt lat="47.911164" lon="7.904080">
        <ele>1182.104028</ele>
        <time>2021-09-03T16:48:47.000Z</time>
      </trkpt>
      <trkpt lat="47.911129" lon="7.904205">
        <ele>1181.837718</ele>
        <time>2021-09-03T16:48:58.000Z</time>
      </trkpt>
      <trkpt lat="47.911101" lon="7.904335">
        <ele>1181.569287</ele>
        <time>2021-09-03T16:49:10.000Z</time>
      </trkpt>
      <trkpt lat="47.911116" lon="7.904481">
        <ele>1181.046919</ele>
        <time>2021-09-03T16:49:17.000Z</time>
      </trkpt>
      <trkpt lat="47.911143" lon="7.904611">
        <ele>1180.146563</ele>
        <time>2021-09-03T16:49:23.000Z</time>
      </trkpt>
      <trkpt lat="47.911160" lon="7.904753">
        <ele>1179.192295</ele>
        <time>2021-09-03T16:49:30.000Z</time>
      </trkpt>
      <trkpt lat="47.911174" lon="7.904897">
        <ele>1178.229693</ele>
        <time>2021-09-03T16:49:37.000Z</time>
      </trkpt>
      <trkpt lat="47.911201" lon="7.905043">
        <ele>1177.227743</ele>
        <time>2021-09-03T16:49:43.999Z</time>
      </trkpt>
      <trkpt lat="47.911241" lon="7.905187">
        <ele>1176.196547</ele>
        <time>2021-09-03T16:49:50.999Z</time>
      </trkpt>
      <trkpt lat="47.911262" lon="7.905326">
        <ele>1175.253924</ele>
        <time>2021-09-03T16:49:57.999Z</time>
      </trkpt>
      <trkpt lat="47.911273" lon="7.905476">
        <ele>1174.255679</ele>
        <time>2021-09-03T16:50:04.999Z</time>
      </trkpt>
      <trkpt lat="47.911283" lon="7.905621">
        <ele>1173.291369</ele>
        <time>2021-09-03T16:50:11.999Z</time>
      </trkpt>
      <trkpt lat="47.911293" lon="7.905769">
        <ele>1172.307315</ele>
        <time>2021-09-03T16:50:18.999Z</time>
      </trkpt>
      <trkpt lat="47.911328" lon="7.905909">
        <ele>1171.318822</ele>
        <time>2021-09-03T16:50:27.999Z</time>
      </trkpt>
      <trkpt lat="47.911331" lon="7.906057">
        <ele>1170.339283</ele>
        <time>2021-09-03T16:50:35.000Z</time>
      </trkpt>
      <trkpt lat="47.911343" lon="7.906203">
        <ele>1169.366188</ele>
        <time>2021-09-03T16:50:42.000Z</time>
      </trkpt>
      <trkpt lat="47.911369" lon="7.906337">
        <ele>1168.443320</ele>
        <time>2021-09-03T16:50:49.000Z</time>
      </trkpt>
      <trkpt lat="47.911390" lon="7.906483">
        <ele>1167.455472</ele>
        <time>2021-09-03T16:51:31.000Z</time>
      </trkpt>
      <trkpt lat="47.911409" lon="7.906614">
        <ele>1166.568788</ele>
        <time>2021-09-03T16:51:38.000Z</time>
      </trkpt>
      <trkpt lat="47.911443" lon="7.906750">
        <ele>1165.608540</ele>
        <time>2021-09-03T16:51:45.000Z</time>
      </trkpt>
      <trkpt lat="47.911480" lon="7.906889">
        <ele>1164.619132</ele>
        <time>2021-09-03T16:51:51.999Z</time>
      </trkpt>
      <trkpt lat="47.911378" lon="7.906891">
        <ele>1163.611185</ele>
        <time>2021-09-03T16:52:05.999Z</time>
      </trkpt>
      <trkpt lat="47.911298" lon="7.906789">
        <ele>1162.477616</ele>
        <time>2021-09-03T16:52:12.999Z</time>
      </trkpt>
      <trkpt lat="47.911222" lon="7.906706">
        <ele>1161.463054</ele>
        <time>2021-09-03T16:52:18.999Z</time>
      </trkpt>
      <trkpt lat="47.911137" lon="7.906619">
        <ele>1160.352685</ele>
        <time>2021-09-03T16:52:25.999Z</time>
      </trkpt>
      <trkpt lat="47.911065" lon="7.906532">
        <ele>1159.354639</ele>
        <time>2021-09-03T16:52:32.999Z</time>
      </trkpt>
      <trkpt lat="47.910999" lon="7.906424">
        <ele>1158.299414</ele>
        <time>2021-09-03T16:52:40.000Z</time>
      </trkpt>
      <trkpt lat="47.910938" lon="7.906320">
        <ele>1157.301610</ele>
        <time>2021-09-03T16:52:49.000Z</time>
      </trkpt>
      <trkpt lat="47.910902" lon="7.906173">
        <ele>1156.171614</ele>
        <time>2021-09-03T16:52:56.000Z</time>
      </trkpt>
      <trkpt lat="47.910841" lon="7.906047">
        <ele>1155.049384</ele>
        <time>2021-09-03T16:53:03.000Z</time>
      </trkpt>
      <trkpt lat="47.910794" lon="7.905921">
        <ele>1154.008249</ele>
        <time>2021-09-03T16:53:10.000Z</time>
      </trkpt>
      <trkpt lat="47.910732" lon="7.905799">
        <ele>1152.902825</ele>
        <time>2021-09-03T16:53:17.000Z</time>
      </trkpt>
      <trkpt lat="47.910680" lon="7.905682">
        <ele>1151.889224</ele>
        <time>2021-09-03T16:53:24.000Z</time>
      </trkpt>
      <trkpt lat="47.910641" lon="7.905554">
        <ele>1150.874030</ele>
        <time>2021-09-03T16:53:31.000Z</time>
      </trkpt>
      <trkpt lat="47.910576" lon="7.905456">
        <ele>1149.878581</ele>
        <time>2021-09-03T16:53:38.000Z</time>
      </trkpt>
      <trkpt lat="47.910524" lon="7.905324">
        <ele>1148.773092</ele>
        <time>2021-09-03T16:53:44.999Z</time>
      </trkpt>
      <trkpt lat="47.910475" lon="7.905204">
        <ele>1147.758547</ele>
        <time>2021-09-03T16:53:51.999Z</time>
      </trkpt>
      <trkpt lat="47.910422" lon="7.905078">
        <ele>1146.684492</ele>
        <time>2021-09-03T16:53:58.999Z</time>
      </trkpt>
      <trkpt lat="47.910364" lon="7.904953">
        <ele>1145.586810</ele>
        <time>2021-09-03T16:54:05.999Z</time>
      </trkpt>
      <trkpt lat="47.910331" lon="7.904814">
        <ele>1144.522095</ele>
        <time>2021-09-03T16:54:12.999Z</time>
      </trkpt>
      <trkpt lat="47.910285" lon="7.904696">
        <ele>1143.222784</ele>
        <time>2021-09-03T16:54:19.999Z</time>
      </trkpt>
      <trkpt lat="47.910185" lon="7.904686">
        <ele>1141.668617</ele>
        <time>2021-09-03T16:54:26.999Z</time>
      </trkpt>
      <trkpt lat="47.910089" lon="7.904676">
        <ele>1140.176333</ele>
        <time>2021-09-03T16:54:33.999Z</time>
      </trkpt>
      <trkpt lat="47.909996" lon="7.904690">
        <ele>1138.726870</ele>
        <time>2021-09-03T16:54:42.999Z</time>
      </trkpt>
      <trkpt lat="47.909895" lon="7.904668">
        <ele>1137.144070</ele>
        <time>2021-09-03T16:54:52.000Z</time>
      </trkpt>
      <trkpt lat="47.909800" lon="7.904660">
        <ele>1135.668572</ele>
        <time>2021-09-03T16:55:00.000Z</time>
      </trkpt>
      <trkpt lat="47.909708" lon="7.904642">
        <ele>1134.229724</ele>
        <time>2021-09-03T16:55:07.000Z</time>
      </trkpt>
      <trkpt lat="47.909616" lon="7.904635">
        <ele>1132.801237</ele>
        <time>2021-09-03T16:55:14.000Z</time>
      </trkpt>
      <trkpt lat="47.909525" lon="7.904604">
        <ele>1131.353790</ele>
        <time>2021-09-03T16:55:22.000Z</time>
      </trkpt>
      <trkpt lat="47.909430" lon="7.904586">
        <ele>1129.868804</ele>
        <time>2021-09-03T16:55:31.000Z</time>
      </trkpt>
      <trkpt lat="47.909333" lon="7.904551">
        <ele>1128.321267</ele>
        <time>2021-09-03T16:55:39.000Z</time>
      </trkpt>
      <trkpt lat="47.909240" lon="7.904519">
        <ele>1126.841267</ele>
        <time>2021-09-03T16:55:46.000Z</time>
      </trkpt>
      <trkpt lat="47.909140" lon="7.904518">
        <ele>1125.290544</ele>
        <time>2021-09-03T16:55:54.000Z</time>
      </trkpt>
      <trkpt lat="47.909046" lon="7.904461">
        <ele>1123.717088</ele>
        <time>2021-09-03T16:56:04.999Z</time>
      </trkpt>
      <trkpt lat="47.908955" lon="7.904401">
        <ele>1122.174288</ele>
        <time>2021-09-03T16:56:11.999Z</time>
      </trkpt>
      <trkpt lat="47.908853" lon="7.904365">
        <ele>1120.548925</ele>
        <time>2021-09-03T16:56:19.999Z</time>
      </trkpt>
      <trkpt lat="47.908778" lon="7.904270">
        <ele>1119.023242</ele>
        <time>2021-09-03T16:56:30.999Z</time>
      </trkpt>
      <trkpt lat="47.908685" lon="7.904217">
        <ele>1117.479460</ele>
        <time>2021-09-03T16:56:38.999Z</time>
      </trkpt>
      <trkpt lat="47.908589" lon="7.904180">
        <ele>1115.760308</ele>
        <time>2021-09-03T16:56:45.999Z</time>
      </trkpt>
      <trkpt lat="47.908490" lon="7.904136">
        <ele>1113.460609</ele>
        <time>2021-09-03T16:56:55.000Z</time>
      </trkpt>
      <trkpt lat="47.908410" lon="7.904056">
        <ele>1111.316516</ele>
        <time>2021-09-03T16:57:04.000Z</time>
      </trkpt>
      <trkpt lat="47.908320" lon="7.903996">
        <ele>1109.121945</ele>
        <time>2021-09-03T16:57:12.000Z</time>
      </trkpt>
      <trkpt lat="47.908242" lon="7.903916">
        <ele>1107.014688</ele>
        <time>2021-09-03T16:57:19.000Z</time>
      </trkpt>
      <trkpt lat="47.908169" lon="7.903832">
        <ele>1104.962267</ele>
        <time>2021-09-03T16:57:26.000Z</time>
      </trkpt>
      <trkpt lat="47.908085" lon="7.903754">
        <ele>1102.759564</ele>
        <time>2021-09-03T16:57:34.000Z</time>
      </trkpt>
      <trkpt lat="47.908002" lon="7.903689">
        <ele>1100.672664</ele>
        <time>2021-09-03T16:57:45.000Z</time>
      </trkpt>
      <trkpt lat="47.907940" lon="7.903579">
        <ele>1098.527964</ele>
        <time>2021-09-03T16:57:54.000Z</time>
      </trkpt>
      <trkpt lat="47.907867" lon="7.903476">
        <ele>1096.291071</ele>
        <time>2021-09-03T16:58:04.000Z</time>
      </trkpt>
      <trkpt lat="47.907818" lon="7.903346">
        <ele>1094.065420</ele>
        <time>2021-09-03T16:58:11.000Z</time>
      </trkpt>
      <trkpt lat="47.907785" lon="7.903202">
        <ele>1091.794396</ele>
        <time>2021-09-03T16:58:19.000Z</time>
      </trkpt>
      <trkpt lat="47.907775" lon="7.903060">
        <ele>1089.663665</ele>
        <time>2021-09-03T16:58:26.999Z</time>
      </trkpt>
      <trkpt lat="47.907764" lon="7.902917">
        <ele>1087.515669</ele>
        <time>2021-09-03T16:58:34.999Z</time>
      </trkpt>
      <trkpt lat="47.907749" lon="7.902779">
        <ele>1085.429393</ele>
        <time>2021-09-03T16:58:42.999Z</time>
      </trkpt>
      <trkpt lat="47.907721" lon="7.902644">
        <ele>1083.320552</ele>
        <time>2021-09-03T16:58:50.999Z</time>
      </trkpt>
      <trkpt lat="47.907723" lon="7.902501">
        <ele>1081.186093</ele>
        <time>2021-09-03T16:58:59.000Z</time>
      </trkpt>
      <trkpt lat="47.907728" lon="7.902355">
        <ele>1079.004489</ele>
        <time>2021-09-03T16:59:07.000Z</time>
      </trkpt>
      <trkpt lat="47.907730" lon="7.902215">
        <ele>1076.914790</ele>
        <time>2021-09-03T16:59:16.000Z</time>
      </trkpt>
      <trkpt lat="47.907717" lon="7.902060">
        <ele>1075.530785</ele>
        <time>2021-09-03T16:59:24.000Z</time>
      </trkpt>
      <trkpt lat="47.907701" lon="7.901925">
        <ele>1074.602922</ele>
        <time>2021-09-03T16:59:30.000Z</time>
      </trkpt>
      <trkpt lat="47.907677" lon="7.901779">
        <ele>1073.585503</ele>
        <time>2021-09-03T16:59:37.000Z</time>
      </trkpt>
      <trkpt lat="47.907671" lon="7.901645">
        <ele>1072.676558</ele>
        <time>2021-09-03T16:59:44.000Z</time>
      </trkpt>
      <trkpt lat="47.907647" lon="7.901504">
        <ele>1071.691972</ele>
        <time>2021-09-03T16:59:51.000Z</time>
      </trkpt>
      <trkpt lat="47.907609" lon="7.901377">
        <ele>1070.750681</ele>
        <time>2021-09-03T17:00:00.000Z</time>
      </trkpt>
      <trkpt lat="47.907538" lon="7.901259">
        <ele>1069.677501</ele>
        <time>2021-09-03T17:00:08.000Z</time>
      </trkpt>
      <trkpt lat="47.907471" lon="7.901155">
        <ele>1068.701245</ele>
        <time>2021-09-03T17:00:15.000Z</time>
      </trkpt>
      <trkpt lat="47.907445" lon="7.901010">
        <ele>1067.685364</ele>
        <time>2021-09-03T17:00:22.999Z</time>
      </trkpt>
      <trkpt lat="47.907401" lon="7.900875">
        <ele>1066.669390</ele>
        <time>2021-09-03T17:00:29.999Z</time>
      </trkpt>
      <trkpt lat="47.907381" lon="7.900735">
        <ele>1065.700574</ele>
        <time>2021-09-03T17:00:38.999Z</time>
      </trkpt>
      <trkpt lat="47.907338" lon="7.900605">
        <ele>1064.719431</ele>
        <time>2021-09-03T17:00:46.999Z</time>
      </trkpt>
      <trkpt lat="47.907294" lon="7.900479">
        <ele>1063.757867</ele>
        <time>2021-09-03T17:00:54.999Z</time>
      </trkpt>
      <trkpt lat="47.907243" lon="7.900362">
        <ele>1062.813295</ele>
        <time>2021-09-03T17:01:04.000Z</time>
      </trkpt>
      <trkpt lat="47.907300" lon="7.900222">
        <ele>1061.704672</ele>
        <time>2021-09-03T17:01:31.000Z</time>
      </trkpt>
      <trkpt lat="47.907288" lon="7.900076">
        <ele>1060.709123</ele>
        <time>2021-09-03T17:01:39.000Z</time>
      </trkpt>
      <trkpt lat="47.907249" lon="7.899951">
        <ele>1059.775955</ele>
        <time>2021-09-03T17:01:46.000Z</time>
      </trkpt>
      <trkpt lat="47.907216" lon="7.899817">
        <ele>1058.809756</ele>
        <time>2021-09-03T17:01:53.000Z</time>
      </trkpt>
      <trkpt lat="47.907194" lon="7.899685">
        <ele>1058.322221</ele>
        <time>2021-09-03T17:01:59.000Z</time>
      </trkpt>
      <trkpt lat="47.907160" lon="7.899545">
        <ele>1058.947161</ele>
        <time>2021-09-03T17:02:06.000Z</time>
      </trkpt>
      <trkpt lat="47.907141" lon="7.899402">
        <ele>1059.558996</ele>
        <time>2021-09-03T17:02:13.000Z</time>
      </trkpt>
      <trkpt lat="47.907092" lon="7.899264">
        <ele>1060.214404</ele>
        <time>2021-09-03T17:02:20.000Z</time>
      </trkpt>
      <trkpt lat="47.907053" lon="7.899125">
        <ele>1060.846816</ele>
        <time>2021-09-03T17:02:27.000Z</time>
      </trkpt>
      <trkpt lat="47.907019" lon="7.898986">
        <ele>1061.467813</ele>
        <time>2021-09-03T17:02:34.000Z</time>
      </trkpt>
      <trkpt lat="47.906980" lon="7.898860">
        <ele>1062.050278</ele>
        <time>2021-09-03T17:02:41.000Z</time>
      </trkpt>
      <trkpt lat="47.906943" lon="7.898718">
        <ele>1062.689681</ele>
        <time>2021-09-03T17:02:47.999Z</time>
      </trkpt>
      <trkpt lat="47.906918" lon="7.898577">
        <ele>1063.301799</ele>
        <time>2021-09-03T17:02:54.999Z</time>
      </trkpt>
      <trkpt lat="47.906886" lon="7.898441">
        <ele>1063.906723</ele>
        <time>2021-09-03T17:03:01.999Z</time>
      </trkpt>
      <trkpt lat="47.906871" lon="7.898301">
        <ele>1064.501752</ele>
        <time>2021-09-03T17:03:09.000Z</time>
      </trkpt>
      <trkpt lat="47.906822" lon="7.898171">
        <ele>1065.127691</ele>
        <time>2021-09-03T17:03:16.000Z</time>
      </trkpt>
      <trkpt lat="47.906779" lon="7.898051">
        <ele>1065.698765</ele>
        <time>2021-09-03T17:03:23.000Z</time>
      </trkpt>
      <trkpt lat="47.906687" lon="7.898000">
        <ele>1066.313254</ele>
        <time>2021-09-03T17:03:31.000Z</time>
      </trkpt>
      <trkpt lat="47.906595" lon="7.897975">
        <ele>1066.898738</ele>
        <time>2021-09-03T17:03:39.000Z</time>
      </trkpt>
      <trkpt lat="47.906502" lon="7.897989">
        <ele>1067.483962</ele>
        <time>2021-09-03T17:03:46.000Z</time>
      </trkpt>
      <trkpt lat="47.906416" lon="7.898050">
        <ele>1068.080168</ele>
        <time>2021-09-03T17:03:54.000Z</time>
      </trkpt>
      <trkpt lat="47.906326" lon="7.898103">
        <ele>1068.685967</ele>
        <time>2021-09-03T17:04:00.000Z</time>
      </trkpt>
      <trkpt lat="47.906237" lon="7.898177">
        <ele>1069.323898</ele>
        <time>2021-09-03T17:04:08.000Z</time>
      </trkpt>
      <trkpt lat="47.906142" lon="7.898222">
        <ele>1069.894058</ele>
        <time>2021-09-03T17:04:14.000Z</time>
      </trkpt>
      <trkpt lat="47.906045" lon="7.898262">
        <ele>1070.460111</ele>
        <time>2021-09-03T17:04:21.000Z</time>
      </trkpt>
      <trkpt lat="47.905955" lon="7.898271">
        <ele>1070.967466</ele>
        <time>2021-09-03T17:04:27.000Z</time>
      </trkpt>
      <trkpt lat="47.905856" lon="7.898251">
        <ele>1071.529389</ele>
        <time>2021-09-03T17:04:33.999Z</time>
      </trkpt>
      <trkpt lat="47.905760" lon="7.898203">
        <ele>1072.098880</ele>
        <time>2021-09-03T17:04:41.999Z</time>
      </trkpt>
      <trkpt lat="47.905672" lon="7.898153">
        <ele>1072.628536</ele>
        <time>2021-09-03T17:04:48.999Z</time>
      </trkpt>
      <trkpt lat="47.905576" lon="7.898142">
        <ele>1073.170094</ele>
        <time>2021-09-03T17:04:54.999Z</time>
      </trkpt>
      <trkpt lat="47.905477" lon="7.898138">
        <ele>1073.727138</ele>
        <time>2021-09-03T17:05:01.999Z</time>
      </trkpt>
      <trkpt lat="47.905374" lon="7.898140">
        <ele>1074.306527</ele>
        <time>2021-09-03T17:05:09.999Z</time>
      </trkpt>
      <trkpt lat="47.905281" lon="7.898174">
        <ele>1074.845100</ele>
        <time>2021-09-03T17:05:15.000Z</time>
      </trkpt>
      <trkpt lat="47.905178" lon="7.898192">
        <ele>1075.428401</ele>
        <time>2021-09-03T17:05:21.000Z</time>
      </trkpt>
      <trkpt lat="47.905094" lon="7.898256">
        <ele>1075.958930</ele>
        <time>2021-09-03T17:05:28.000Z</time>
      </trkpt>
      <trkpt lat="47.905022" lon="7.898348">
        <ele>1076.492163</ele>
        <time>2021-09-03T17:05:36.000Z</time>
      </trkpt>
      <trkpt lat="47.904945" lon="7.898432">
        <ele>1077.028717</ele>
        <time>2021-09-03T17:05:44.000Z</time>
      </trkpt>
      <trkpt lat="47.904878" lon="7.898547">
        <ele>1077.603207</ele>
        <time>2021-09-03T17:05:53.000Z</time>
      </trkpt>
      <trkpt lat="47.904792" lon="7.898606">
        <ele>1078.135630</ele>
        <time>2021-09-03T17:06:00.000Z</time>
      </trkpt>
      <trkpt lat="47.904721" lon="7.898693">
        <ele>1078.652439</ele>
        <time>2021-09-03T17:06:06.000Z</time>
      </trkpt>
      <trkpt lat="47.904649" lon="7.898795">
        <ele>1079.210937</ele>
        <time>2021-09-03T17:06:13.000Z</time>
      </trkpt>
      <trkpt lat="47.904588" lon="7.898916">
        <ele>1079.152497</ele>
        <time>2021-09-03T17:06:20.000Z</time>
      </trkpt>
      <trkpt lat="47.904517" lon="7.899006">
        <ele>1078.343566</ele>
        <time>2021-09-03T17:06:27.000Z</time>
      </trkpt>
      <trkpt lat="47.904433" lon="7.899063">
        <ele>1077.542361</ele>
        <time>2021-09-03T17:06:32.999Z</time>
      </trkpt>
      <trkpt lat="47.904335" lon="7.899076">
        <ele>1076.688159</ele>
        <time>2021-09-03T17:06:40.999Z</time>
      </trkpt>
      <trkpt lat="47.904256" lon="7.899001">
        <ele>1075.875149</ele>
        <time>2021-09-03T17:07:48.000Z</time>
      </trkpt>
      <trkpt lat="47.904162" lon="7.898950">
        <ele>1075.006728</ele>
        <time>2021-09-03T17:07:55.000Z</time>
      </trkpt>
      <trkpt lat="47.904086" lon="7.898871">
        <ele>1074.202488</ele>
        <time>2021-09-03T17:08:02.000Z</time>
      </trkpt>
      <trkpt lat="47.904005" lon="7.898804">
        <ele>1073.398358</ele>
        <time>2021-09-03T17:08:08.000Z</time>
      </trkpt>
      <trkpt lat="47.903923" lon="7.898709">
        <ele>1072.496930</ele>
        <time>2021-09-03T17:08:15.000Z</time>
      </trkpt>
      <trkpt lat="47.903850" lon="7.898630">
        <ele>1071.713917</ele>
        <time>2021-09-03T17:08:21.000Z</time>
      </trkpt>
      <trkpt lat="47.903768" lon="7.898548">
        <ele>1070.856814</ele>
        <time>2021-09-03T17:08:28.000Z</time>
      </trkpt>
      <trkpt lat="47.903690" lon="7.898473">
        <ele>1070.051113</ele>
        <time>2021-09-03T17:08:35.000Z</time>
      </trkpt>
      <trkpt lat="47.903608" lon="7.898418">
        <ele>1069.270523</ele>
        <time>2021-09-03T17:08:40.999Z</time>
      </trkpt>
      <trkpt lat="47.903520" lon="7.898355">
        <ele>1068.423065</ele>
        <time>2021-09-03T17:08:46.999Z</time>
      </trkpt>
      <trkpt lat="47.903433" lon="7.898318">
        <ele>1067.637624</ele>
        <time>2021-09-03T17:08:52.999Z</time>
      </trkpt>
      <trkpt lat="47.903341" lon="7.898269">
        <ele>1066.789484</ele>
        <time>2021-09-03T17:08:59.999Z</time>
      </trkpt>
      <trkpt lat="47.903245" lon="7.898213">
        <ele>1065.894540</ele>
        <time>2021-09-03T17:09:07.999Z</time>
      </trkpt>
      <trkpt lat="47.903152" lon="7.898147">
        <ele>1065.000384</ele>
        <time>2021-09-03T17:09:13.999Z</time>
      </trkpt>
      <trkpt lat="47.903070" lon="7.898082">
        <ele>1064.194174</ele>
        <time>2021-09-03T17:09:19.999Z</time>
      </trkpt>
      <trkpt lat="47.902990" lon="7.898006">
        <ele>1063.426790</ele>
        <time>2021-09-03T17:09:25.999Z</time>
      </trkpt>
      <trkpt lat="47.902906" lon="7.897926">
        <ele>1062.650122</ele>
        <time>2021-09-03T17:09:32.000Z</time>
      </trkpt>
      <trkpt lat="47.902844" lon="7.897824">
        <ele>1061.930797</ele>
        <time>2021-09-03T17:09:38.000Z</time>
      </trkpt>
      <trkpt lat="47.902782" lon="7.897706">
        <ele>1061.147532</ele>
        <time>2021-09-03T17:09:46.000Z</time>
      </trkpt>
      <trkpt lat="47.902727" lon="7.897591">
        <ele>1060.409502</ele>
        <time>2021-09-03T17:09:53.000Z</time>
      </trkpt>
      <trkpt lat="47.902648" lon="7.897513">
        <ele>1059.671199</ele>
        <time>2021-09-03T17:10:01.000Z</time>
      </trkpt>
      <trkpt lat="47.902562" lon="7.897464">
        <ele>1058.953764</ele>
        <time>2021-09-03T17:10:08.000Z</time>
      </trkpt>
      <trkpt lat="47.902468" lon="7.897403">
        <ele>1058.154892</ele>
        <time>2021-09-03T17:10:14.999Z</time>
      </trkpt>
      <trkpt lat="47.902380" lon="7.897342">
        <ele>1057.398667</ele>
        <time>2021-09-03T17:10:21.999Z</time>
      </trkpt>
      <trkpt lat="47.902291" lon="7.897402">
        <ele>1056.637534</ele>
        <time>2021-09-03T17:10:28.999Z</time>
      </trkpt>
      <trkpt lat="47.902207" lon="7.897478">
        <ele>1055.871906</ele>
        <time>2021-09-03T17:10:35.999Z</time>
      </trkpt>
      <trkpt lat="47.902110" lon="7.897520">
        <ele>1055.084772</ele>
        <time>2021-09-03T17:10:42.999Z</time>
      </trkpt>
      <trkpt lat="47.902007" lon="7.897529">
        <ele>1054.280706</ele>
        <time>2021-09-03T17:10:50.999Z</time>
      </trkpt>
      <trkpt lat="47.901936" lon="7.897429">
        <ele>1053.519715</ele>
        <time>2021-09-03T17:10:57.999Z</time>
      </trkpt>
      <trkpt lat="47.901884" lon="7.897304">
        <ele>1052.751137</ele>
        <time>2021-09-03T17:11:03.999Z</time>
      </trkpt>
      <trkpt lat="47.901866" lon="7.897160">
        <ele>1051.985841</ele>
        <time>2021-09-03T17:11:10.999Z</time>
      </trkpt>
      <trkpt lat="47.901847" lon="7.897028">
        <ele>1051.280488</ele>
        <time>2021-09-03T17:11:16.999Z</time>
      </trkpt>
      <trkpt lat="47.901815" lon="7.896903">
        <ele>1050.581428</ele>
        <time>2021-09-03T17:11:22.999Z</time>
      </trkpt>
      <trkpt lat="47.901767" lon="7.896770">
        <ele>1049.872275</ele>
        <time>2021-09-03T17:11:29.999Z</time>
      </trkpt>
      <trkpt lat="47.901698" lon="7.896671">
        <ele>1049.673165</ele>
        <time>2021-09-03T17:11:36.000Z</time>
      </trkpt>
      <trkpt lat="47.901646" lon="7.896561">
        <ele>1049.485502</ele>
        <time>2021-09-03T17:11:42.000Z</time>
      </trkpt>
      <trkpt lat="47.901569" lon="7.896458">
        <ele>1049.270403</ele>
        <time>2021-09-03T17:11:49.000Z</time>
      </trkpt>
      <trkpt lat="47.901512" lon="7.896337">
        <ele>1049.064213</ele>
        <time>2021-09-03T17:11:56.000Z</time>
      </trkpt>
      <trkpt lat="47.901427" lon="7.896196">
        <ele>1048.799831</ele>
        <time>2021-09-03T17:14:07.000Z</time>
      </trkpt>
      <trkpt lat="47.901337" lon="7.896120">
        <ele>1048.584743</ele>
        <time>2021-09-03T17:14:13.000Z</time>
      </trkpt>
      <trkpt lat="47.901259" lon="7.896025">
        <ele>1048.375317</ele>
        <time>2021-09-03T17:14:20.000Z</time>
      </trkpt>
      <trkpt lat="47.901171" lon="7.895945">
        <ele>1048.160990</ele>
        <time>2021-09-03T17:14:27.000Z</time>
      </trkpt>
      <trkpt lat="47.901089" lon="7.895887">
        <ele>1047.972250</ele>
        <time>2021-09-03T17:14:33.000Z</time>
      </trkpt>
      <trkpt lat="47.900989" lon="7.895855">
        <ele>1047.759546</ele>
        <time>2021-09-03T17:14:40.000Z</time>
      </trkpt>
      <trkpt lat="47.900900" lon="7.895873">
        <ele>1047.572757</ele>
        <time>2021-09-03T17:14:46.000Z</time>
      </trkpt>
      <trkpt lat="47.900823" lon="7.895971">
        <ele>1047.362247</ele>
        <time>2021-09-03T17:14:53.000Z</time>
      </trkpt>
      <trkpt lat="47.900751" lon="7.896070">
        <ele>1047.158592</ele>
        <time>2021-09-03T17:14:59.999Z</time>
      </trkpt>
      <trkpt lat="47.900661" lon="7.896102">
        <ele>1046.966173</ele>
        <time>2021-09-03T17:15:06.999Z</time>
      </trkpt>
      <trkpt lat="47.900558" lon="7.896098">
        <ele>1046.751889</ele>
        <time>2021-09-03T17:15:13.999Z</time>
      </trkpt>
      <trkpt lat="47.900457" lon="7.896102">
        <ele>1046.541763</ele>
        <time>2021-09-03T17:15:20.999Z</time>
      </trkpt>
      <trkpt lat="47.900354" lon="7.896114">
        <ele>1046.326899</ele>
        <time>2021-09-03T17:15:27.999Z</time>
      </trkpt>
      <trkpt lat="47.900256" lon="7.896151">
        <ele>1046.189500</ele>
        <time>2021-09-03T17:15:34.999Z</time>
      </trkpt>
      <trkpt lat="47.900162" lon="7.896169">
        <ele>1046.318256</ele>
        <time>2021-09-03T17:15:41.999Z</time>
      </trkpt>
      <trkpt lat="47.900070" lon="7.896209">
        <ele>1046.448449</ele>
        <time>2021-09-03T17:15:49.000Z</time>
      </trkpt>
      <trkpt lat="47.899989" lon="7.896269">
        <ele>1046.571318</ele>
        <time>2021-09-03T17:15:58.000Z</time>
      </trkpt>
      <trkpt lat="47.899909" lon="7.896347">
        <ele>1046.701166</ele>
        <time>2021-09-03T17:16:05.000Z</time>
      </trkpt>
      <trkpt lat="47.899819" lon="7.896403">
        <ele>1046.833653</ele>
        <time>2021-09-03T17:16:12.000Z</time>
      </trkpt>
      <trkpt lat="47.899737" lon="7.896475">
        <ele>1046.962927</ele>
        <time>2021-09-03T17:16:19.000Z</time>
      </trkpt>
      <trkpt lat="47.899661" lon="7.896570">
        <ele>1047.097645</ele>
        <time>2021-09-03T17:16:26.000Z</time>
      </trkpt>
      <trkpt lat="47.899609" lon="7.896679">
        <ele>1047.219497</ele>
        <time>2021-09-03T17:16:33.000Z</time>
      </trkpt>
      <trkpt lat="47.899542" lon="7.896778">
        <ele>1047.347626</ele>
        <time>2021-09-03T17:16:40.000Z</time>
      </trkpt>
      <trkpt lat="47.899447" lon="7.896842">
        <ele>1047.489247</ele>
        <time>2021-09-03T17:16:48.000Z</time>
      </trkpt>
      <trkpt lat="47.899370" lon="7.896935">
        <ele>1047.623855</ele>
        <time>2021-09-03T17:16:56.000Z</time>
      </trkpt>
      <trkpt lat="47.899366" lon="7.897079">
        <ele>1047.755130</ele>
        <time>2021-09-03T17:17:03.000Z</time>
      </trkpt>
      <trkpt lat="47.899295" lon="7.897170">
        <ele>1047.882311</ele>
        <time>2021-09-03T17:17:11.000Z</time>
      </trkpt>
      <trkpt lat="47.899212" lon="7.897258">
        <ele>1048.020660</ele>
        <time>2021-09-03T17:17:18.999Z</time>
      </trkpt>
      <trkpt lat="47.899127" lon="7.897332">
        <ele>1048.154372</ele>
        <time>2021-09-03T17:17:26.999Z</time>
      </trkpt>
      <trkpt lat="47.899123" lon="7.897477">
        <ele>1048.286558</ele>
        <time>2021-09-03T17:17:35.999Z</time>
      </trkpt>
      <trkpt lat="47.899181" lon="7.897600">
        <ele>1048.423529</ele>
        <time>2021-09-03T17:17:43.999Z</time>
      </trkpt>
      <trkpt lat="47.899249" lon="7.897716">
        <ele>1048.563881</ele>
        <time>2021-09-03T17:17:51.000Z</time>
      </trkpt>
      <trkpt lat="47.899303" lon="7.897843">
        <ele>1048.600341</ele>
        <time>2021-09-03T17:17:59.000Z</time>
      </trkpt>
      <trkpt lat="47.899373" lon="7.897929">
        <ele>1048.595224</ele>
        <time>2021-09-03T17:18:05.000Z</time>
      </trkpt>
      <trkpt lat="47.899364" lon="7.898068">
        <ele>1048.589941</ele>
        <time>2021-09-03T17:18:11.000Z</time>
      </trkpt>
      <trkpt lat="47.899358" lon="7.898213">
        <ele>1048.584445</ele>
        <time>2021-09-03T17:18:18.000Z</time>
      </trkpt>
      <trkpt lat="47.899346" lon="7.898355">
        <ele>1048.579030</ele>
        <time>2021-09-03T17:18:25.000Z</time>
      </trkpt>
      <trkpt lat="47.899342" lon="7.898491">
        <ele>1048.573880</ele>
        <time>2021-09-03T17:18:32.000Z</time>
      </trkpt>
      <trkpt lat="47.899348" lon="7.898636">
        <ele>1048.568384</ele>
        <time>2021-09-03T17:18:39.000Z</time>
      </trkpt>
      <trkpt lat="47.899362" lon="7.898786">
        <ele>1048.562654</ele>
        <time>2021-09-03T17:18:46.000Z</time>
      </trkpt>
      <trkpt lat="47.899364" lon="7.898924">
        <ele>1048.557432</ele>
        <time>2021-09-03T17:18:53.000Z</time>
      </trkpt>
      <trkpt lat="47.899399" lon="7.899065">
        <ele>1048.551744</ele>
        <time>2021-09-03T17:19:00.000Z</time>
      </trkpt>
      <trkpt lat="47.899406" lon="7.899209">
        <ele>1048.546282</ele>
        <time>2021-09-03T17:19:06.999Z</time>
      </trkpt>
      <trkpt lat="47.899431" lon="7.899348">
        <ele>1048.540837</ele>
        <time>2021-09-03T17:19:13.999Z</time>
      </trkpt>
      <trkpt lat="47.899460" lon="7.899483">
        <ele>1048.535474</ele>
        <time>2021-09-03T17:19:20.999Z</time>
      </trkpt>
      <trkpt lat="47.899506" lon="7.899619">
        <ele>1048.529711</ele>
        <time>2021-09-03T17:19:28.999Z</time>
      </trkpt>
      <trkpt lat="47.899559" lon="7.899735">
        <ele>1048.524400</ele>
        <time>2021-09-03T17:19:35.999Z</time>
      </trkpt>
      <trkpt lat="47.899602" lon="7.899873">
        <ele>1048.518643</ele>
        <time>2021-09-03T17:19:43.999Z</time>
      </trkpt>
      <trkpt lat="47.899658" lon="7.899980">
        <ele>1048.513508</ele>
        <time>2021-09-03T17:19:50.999Z</time>
      </trkpt>
      <trkpt lat="47.899724" lon="7.900097">
        <ele>1048.507723</ele>
        <time>2021-09-03T17:19:59.000Z</time>
      </trkpt>
      <trkpt lat="47.899777" lon="7.900207">
        <ele>1048.500045</ele>
        <time>2021-09-03T17:20:06.000Z</time>
      </trkpt>
      <trkpt lat="47.899832" lon="7.900319">
        <ele>1048.442267</ele>
        <time>2021-09-03T17:20:13.000Z</time>
      </trkpt>
      <trkpt lat="47.899889" lon="7.900448">
        <ele>1048.377970</ele>
        <time>2021-09-03T17:20:22.000Z</time>
      </trkpt>
      <trkpt lat="47.899932" lon="7.900572">
        <ele>1048.319871</ele>
        <time>2021-09-03T17:20:29.000Z</time>
      </trkpt>
      <trkpt lat="47.899979" lon="7.900690">
        <ele>1048.262750</ele>
        <time>2021-09-03T17:20:36.000Z</time>
      </trkpt>
      <trkpt lat="47.900053" lon="7.900789">
        <ele>1048.201044</ele>
        <time>2021-09-03T17:20:44.000Z</time>
      </trkpt>
      <trkpt lat="47.900137" lon="7.900861">
        <ele>1048.140905</ele>
        <time>2021-09-03T17:20:51.000Z</time>
      </trkpt>
      <trkpt lat="47.900219" lon="7.900934">
        <ele>1048.081627</ele>
        <time>2021-09-03T17:20:58.000Z</time>
      </trkpt>
      <trkpt lat="47.900295" lon="7.901017">
        <ele>1048.023156</ele>
        <time>2021-09-03T17:21:05.000Z</time>
      </trkpt>
      <trkpt lat="47.900377" lon="7.901081">
        <ele>1047.965707</ele>
        <time>2021-09-03T17:21:11.999Z</time>
      </trkpt>
      <trkpt lat="47.900448" lon="7.901185">
        <ele>1047.903935</ele>
        <time>2021-09-03T17:21:18.999Z</time>
      </trkpt>
      <trkpt lat="47.900528" lon="7.901253">
        <ele>1047.846778</ele>
        <time>2021-09-03T17:21:25.999Z</time>
      </trkpt>
      <trkpt lat="47.900611" lon="7.901316">
        <ele>1047.788968</ele>
        <time>2021-09-03T17:21:32.999Z</time>
      </trkpt>
      <trkpt lat="47.900679" lon="7.901429">
        <ele>1047.725776</ele>
        <time>2021-09-03T17:21:40.999Z</time>
      </trkpt>
      <trkpt lat="47.900742" lon="7.901529">
        <ele>1047.668668</ele>
        <time>2021-09-03T17:21:47.999Z</time>
      </trkpt>
      <trkpt lat="47.900821" lon="7.901624">
        <ele>1047.605677</ele>
        <time>2021-09-03T17:21:54.999Z</time>
      </trkpt>
      <trkpt lat="47.900901" lon="7.901705">
        <ele>1047.545657</ele>
        <time>2021-09-03T17:22:01.999Z</time>
      </trkpt>
      <trkpt lat="47.900970" lon="7.901816">
        <ele>1047.482661</ele>
        <time>2021-09-03T17:22:09.000Z</time>
      </trkpt>
      <trkpt lat="47.901045" lon="7.901918">
        <ele>1047.419658</ele>
        <time>2021-09-03T17:22:16.000Z</time>
      </trkpt>
      <trkpt lat="47.901106" lon="7.902027">
        <ele>1047.474034</ele>
        <time>2021-09-03T17:22:23.000Z</time>
      </trkpt>
      <trkpt lat="47.901150" lon="7.902145">
        <ele>1047.665223</ele>
        <time>2021-09-03T17:22:30.000Z</time>
      </trkpt>
      <trkpt lat="47.901213" lon="7.902268">
        <ele>1047.884398</ele>
        <time>2021-09-03T17:22:39.000Z</time>
      </trkpt>
      <trkpt lat="47.901270" lon="7.902373">
        <ele>1048.075704</ele>
        <time>2021-09-03T17:22:47.000Z</time>
      </trkpt>
      <trkpt lat="47.901318" lon="7.902491">
        <ele>1048.271138</ele>
        <time>2021-09-03T17:22:54.000Z</time>
      </trkpt>
      <trkpt lat="47.901375" lon="7.902606">
        <ele>1048.473644</ele>
        <time>2021-09-03T17:23:02.000Z</time>
      </trkpt>
      <trkpt lat="47.901434" lon="7.902707">
        <ele>1048.663329</ele>
        <time>2021-09-03T17:23:10.000Z</time>
      </trkpt>
      <trkpt lat="47.901490" lon="7.902833">
        <ele>1048.877384</ele>
        <time>2021-09-03T17:23:16.999Z</time>
      </trkpt>
      <trkpt lat="47.901559" lon="7.902936">
        <ele>1049.083559</ele>
        <time>2021-09-03T17:23:23.999Z</time>
      </trkpt>
      <trkpt lat="47.901615" lon="7.903042">
        <ele>1049.274652</ele>
        <time>2021-09-03T17:23:29.999Z</time>
      </trkpt>
      <trkpt lat="47.901682" lon="7.903141">
        <ele>1049.473838</ele>
        <time>2021-09-03T17:23:36.999Z</time>
      </trkpt>
      <trkpt lat="47.901755" lon="7.903228">
        <ele>1049.671188</ele>
        <time>2021-09-03T17:23:44.999Z</time>
      </trkpt>
      <trkpt lat="47.901780" lon="7.903364">
        <ele>1049.870864</ele>
        <time>2021-09-03T17:24:19.000Z</time>
      </trkpt>
      <trkpt lat="47.901846" lon="7.903489">
        <ele>1050.096159</ele>
        <time>2021-09-03T17:24:27.000Z</time>
      </trkpt>
      <trkpt lat="47.901923" lon="7.903579">
        <ele>1050.302770</ele>
        <time>2021-09-03T17:24:33.000Z</time>
      </trkpt>
      <trkpt lat="47.901987" lon="7.903693">
        <ele>1050.513310</ele>
        <time>2021-09-03T17:24:40.000Z</time>
      </trkpt>
      <trkpt lat="47.902034" lon="7.903825">
        <ele>1050.724940</ele>
        <time>2021-09-03T17:24:47.000Z</time>
      </trkpt>
      <trkpt lat="47.902100" lon="7.903931">
        <ele>1050.929777</ele>
        <time>2021-09-03T17:24:54.000Z</time>
      </trkpt>
      <trkpt lat="47.902126" lon="7.904068">
        <ele>1051.131383</ele>
        <time>2021-09-03T17:25:17.000Z</time>
      </trkpt>
      <trkpt lat="47.902156" lon="7.904221">
        <ele>1051.459240</ele>
        <time>2021-09-03T17:25:23.999Z</time>
      </trkpt>
      <trkpt lat="47.902185" lon="7.904358">
        <ele>1051.783549</ele>
        <time>2021-09-03T17:25:31.999Z</time>
      </trkpt>
      <trkpt lat="47.902180" lon="7.904497">
        <ele>1052.097774</ele>
        <time>2021-09-03T17:25:38.999Z</time>
      </trkpt>
      <trkpt lat="47.902176" lon="7.904644">
        <ele>1052.429880</ele>
        <time>2021-09-03T17:25:45.999Z</time>
      </trkpt>
      <trkpt lat="47.902166" lon="7.904793">
        <ele>1052.767908</ele>
        <time>2021-09-03T17:25:52.999Z</time>
      </trkpt>
      <trkpt lat="47.902154" lon="7.904944">
        <ele>1053.111157</ele>
        <time>2021-09-03T17:25:59.999Z</time>
      </trkpt>
      <trkpt lat="47.902157" lon="7.905088">
        <ele>1053.436375</ele>
        <time>2021-09-03T17:26:06.999Z</time>
      </trkpt>
      <trkpt lat="47.902140" lon="7.905240">
        <ele>1053.784236</ele>
        <time>2021-09-03T17:26:15.000Z</time>
      </trkpt>
      <trkpt lat="47.902135" lon="7.905379">
        <ele>1054.098462</ele>
        <time>2021-09-03T17:26:22.000Z</time>
      </trkpt>
      <trkpt lat="47.902149" lon="7.905528">
        <ele>1054.438097</ele>
        <time>2021-09-03T17:26:29.000Z</time>
      </trkpt>
      <trkpt lat="47.902158" lon="7.905676">
        <ele>1054.773559</ele>
        <time>2021-09-03T17:26:36.000Z</time>
      </trkpt>
      <trkpt lat="47.902169" lon="7.905825">
        <ele>1055.111939</ele>
        <time>2021-09-03T17:26:43.000Z</time>
      </trkpt>
      <trkpt lat="47.902188" lon="7.905968">
        <ele>1055.441021</ele>
        <time>2021-09-03T17:26:50.000Z</time>
      </trkpt>
      <trkpt lat="47.902194" lon="7.906108">
        <ele>1055.757697</ele>
        <time>2021-09-03T17:26:57.000Z</time>
      </trkpt>
      <trkpt lat="47.902198" lon="7.906250">
        <ele>1056.078526</ele>
        <time>2021-09-03T17:27:04.000Z</time>
      </trkpt>
      <trkpt lat="47.902192" lon="7.906390">
        <ele>1056.395202</ele>
        <time>2021-09-03T17:27:10.999Z</time>
      </trkpt>
      <trkpt lat="47.902183" lon="7.906534">
        <ele>1056.721672</ele>
        <time>2021-09-03T17:27:17.999Z</time>
      </trkpt>
      <trkpt lat="47.902167" lon="7.906685">
        <ele>1057.066765</ele>
        <time>2021-09-03T17:27:33.999Z</time>
      </trkpt>
      <trkpt lat="47.902145" lon="7.906819">
        <ele>1057.206220</ele>
        <time>2021-09-03T17:27:41.999Z</time>
      </trkpt>
      <trkpt lat="47.902112" lon="7.906964">
        <ele>1057.116675</ele>
        <time>2021-09-03T17:27:48.999Z</time>
      </trkpt>
      <trkpt lat="47.902090" lon="7.907110">
        <ele>1057.029168</ele>
        <time>2021-09-03T17:27:55.999Z</time>
      </trkpt>
      <trkpt lat="47.902065" lon="7.907253">
        <ele>1056.942749</ele>
        <time>2021-09-03T17:28:02.999Z</time>
      </trkpt>
      <trkpt lat="47.902046" lon="7.907404">
        <ele>1056.852906</ele>
        <time>2021-09-03T17:28:09.999Z</time>
      </trkpt>
      <trkpt lat="47.902011" lon="7.907543">
        <ele>1056.766078</ele>
        <time>2021-09-03T17:28:16.999Z</time>
      </trkpt>
      <trkpt lat="47.901974" lon="7.907687">
        <ele>1056.675897</ele>
        <time>2021-09-03T17:28:24.000Z</time>
      </trkpt>
      <trkpt lat="47.901955" lon="7.907827">
        <ele>1056.592368</ele>
        <time>2021-09-03T17:28:31.000Z</time>
      </trkpt>
      <trkpt lat="47.901945" lon="7.907976">
        <ele>1056.504801</ele>
        <time>2021-09-03T17:28:38.000Z</time>
      </trkpt>
      <trkpt lat="47.901950" lon="7.908129">
        <ele>1056.415224</ele>
        <time>2021-09-03T17:28:45.000Z</time>
      </trkpt>
      <trkpt lat="47.901944" lon="7.908282">
        <ele>1056.325601</ele>
        <time>2021-09-03T17:28:52.000Z</time>
      </trkpt>
      <trkpt lat="47.901921" lon="7.908420">
        <ele>1056.242446</ele>
        <time>2021-09-03T17:28:59.000Z</time>
      </trkpt>
      <trkpt lat="47.901909" lon="7.908569">
        <ele>1056.154688</ele>
        <time>2021-09-03T17:29:06.000Z</time>
      </trkpt>
      <trkpt lat="47.901880" lon="7.908704">
        <ele>1056.071789</ele>
        <time>2021-09-03T17:29:13.000Z</time>
      </trkpt>
      <trkpt lat="47.901889" lon="7.908852">
        <ele>1055.984887</ele>
        <time>2021-09-03T17:29:20.000Z</time>
      </trkpt>
      <trkpt lat="47.901882" lon="7.909000">
        <ele>1055.898125</ele>
        <time>2021-09-03T17:29:27.000Z</time>
      </trkpt>
      <trkpt lat="47.901870" lon="7.909147">
        <ele>1055.811528</ele>
        <time>2021-09-03T17:29:33.999Z</time>
      </trkpt>
      <trkpt lat="47.901821" lon="7.909276">
        <ele>1055.724825</ele>
        <time>2021-09-03T17:29:40.999Z</time>
      </trkpt>
      <trkpt lat="47.901762" lon="7.909395">
        <ele>1055.687008</ele>
        <time>2021-09-03T17:29:47.999Z</time>
      </trkpt>
      <trkpt lat="47.901721" lon="7.909527">
        <ele>1055.722402</ele>
        <time>2021-09-03T17:29:54.999Z</time>
      </trkpt>
      <trkpt lat="47.901672" lon="7.909659">
        <ele>1055.759111</ele>
        <time>2021-09-03T17:30:01.999Z</time>
      </trkpt>
      <trkpt lat="47.901630" lon="7.909792">
        <ele>1055.794878</ele>
        <time>2021-09-03T17:30:08.999Z</time>
      </trkpt>
      <trkpt lat="47.901582" lon="7.909923">
        <ele>1055.831199</ele>
        <time>2021-09-03T17:30:15.999Z</time>
      </trkpt>
      <trkpt lat="47.901542" lon="7.910053">
        <ele>1055.865999</ele>
        <time>2021-09-03T17:30:22.999Z</time>
      </trkpt>
      <trkpt lat="47.901472" lon="7.910144">
        <ele>1055.899696</ele>
        <time>2021-09-03T17:30:30.000Z</time>
      </trkpt>
      <trkpt lat="47.901387" lon="7.910208">
        <ele>1055.934250</ele>
        <time>2021-09-03T17:30:37.000Z</time>
      </trkpt>
      <trkpt lat="47.901285" lon="7.910207">
        <ele>1055.971266</ele>
        <time>2021-09-03T17:30:44.000Z</time>
      </trkpt>
      <trkpt lat="47.901192" lon="7.910195">
        <ele>1056.005142</ele>
        <time>2021-09-03T17:30:51.000Z</time>
      </trkpt>
      <trkpt lat="47.901090" lon="7.910188">
        <ele>1056.042197</ele>
        <time>2021-09-03T17:30:58.000Z</time>
      </trkpt>
      <trkpt lat="47.900992" lon="7.910183">
        <ele>1056.077782</ele>
        <time>2021-09-03T17:31:05.000Z</time>
      </trkpt>
      <trkpt lat="47.900898" lon="7.910209">
        <ele>1056.112476</ele>
        <time>2021-09-03T17:31:12.000Z</time>
      </trkpt>
      <trkpt lat="47.900796" lon="7.910242">
        <ele>1056.150353</ele>
        <time>2021-09-03T17:31:18.999Z</time>
      </trkpt>
      <trkpt lat="47.900701" lon="7.910287">
        <ele>1056.186525</ele>
        <time>2021-09-03T17:31:25.999Z</time>
      </trkpt>
      <trkpt lat="47.900607" lon="7.910318">
        <ele>1056.221462</ele>
        <time>2021-09-03T17:31:32.999Z</time>
      </trkpt>
      <trkpt lat="47.900519" lon="7.910361">
        <ele>1056.255067</ele>
        <time>2021-09-03T17:31:39.999Z</time>
      </trkpt>
      <trkpt lat="47.900432" lon="7.910424">
        <ele>1056.290163</ele>
        <time>2021-09-03T17:31:46.999Z</time>
      </trkpt>
      <trkpt lat="47.900344" lon="7.910458">
        <ele>1056.323153</ele>
        <time>2021-09-03T17:31:53.999Z</time>
      </trkpt>
      <trkpt lat="47.900258" lon="7.910539">
        <ele>1056.318035</ele>
        <time>2021-09-03T17:32:00.999Z</time>
      </trkpt>
      <trkpt lat="47.900185" lon="7.910636">
        <ele>1056.310472</ele>
        <time>2021-09-03T17:32:07.999Z</time>
      </trkpt>
      <trkpt lat="47.900111" lon="7.910734">
        <ele>1056.302818</ele>
        <time>2021-09-03T17:32:14.999Z</time>
      </trkpt>
      <trkpt lat="47.900026" lon="7.910803">
        <ele>1056.295332</ele>
        <time>2021-09-03T17:32:21.999Z</time>
      </trkpt>
      <trkpt lat="47.899946" lon="7.910878">
        <ele>1056.288023</ele>
        <time>2021-09-03T17:32:28.999Z</time>
      </trkpt>
      <trkpt lat="47.899860" lon="7.910935">
        <ele>1056.280744</ele>
        <time>2021-09-03T17:32:36.000Z</time>
      </trkpt>
      <trkpt lat="47.899772" lon="7.910985">
        <ele>1056.273459</ele>
        <time>2021-09-03T17:32:43.000Z</time>
      </trkpt>
      <trkpt lat="47.899685" lon="7.911049">
        <ele>1056.265956</ele>
        <time>2021-09-03T17:32:50.000Z</time>
      </trkpt>
      <trkpt lat="47.899597" lon="7.911125">
        <ele>1056.258090</ele>
        <time>2021-09-03T17:32:58.000Z</time>
      </trkpt>
      <trkpt lat="47.899508" lon="7.911185">
        <ele>1056.250535</ele>
        <time>2021-09-03T17:33:05.000Z</time>
      </trkpt>
      <trkpt lat="47.899409" lon="7.911203">
        <ele>1056.242821</ele>
        <time>2021-09-03T17:33:12.000Z</time>
      </trkpt>
      <trkpt lat="47.899313" lon="7.911222">
        <ele>1056.235330</ele>
        <time>2021-09-03T17:33:19.000Z</time>
      </trkpt>
      <trkpt lat="47.899217" lon="7.911232">
        <ele>1056.227886</ele>
        <time>2021-09-03T17:33:26.000Z</time>
      </trkpt>
      <trkpt lat="47.899122" lon="7.911208">
        <ele>1056.220433</ele>
        <time>2021-09-03T17:33:33.000Z</time>
      </trkpt>
      <trkpt lat="47.899031" lon="7.911174">
        <ele>1056.213176</ele>
        <time>2021-09-03T17:33:39.999Z</time>
      </trkpt>
      <trkpt lat="47.898942" lon="7.911114">
        <ele>1056.205621</ele>
        <time>2021-09-03T17:33:46.999Z</time>
      </trkpt>
      <trkpt lat="47.898848" lon="7.911074">
        <ele>1056.198060</ele>
        <time>2021-09-03T17:33:53.999Z</time>
      </trkpt>
      <trkpt lat="47.898762" lon="7.911007">
        <ele>1056.190555</ele>
        <time>2021-09-03T17:34:00.999Z</time>
      </trkpt>
      <trkpt lat="47.898677" lon="7.910941">
        <ele>1056.185214</ele>
        <time>2021-09-03T17:34:07.999Z</time>
      </trkpt>
      <trkpt lat="47.898601" lon="7.910864">
        <ele>1056.182785</ele>
        <time>2021-09-03T17:34:14.999Z</time>
      </trkpt>
      <trkpt lat="47.898522" lon="7.910778">
        <ele>1056.180199</ele>
        <time>2021-09-03T17:34:21.999Z</time>
      </trkpt>
      <trkpt lat="47.898443" lon="7.910706">
        <ele>1056.177751</ele>
        <time>2021-09-03T17:34:28.999Z</time>
      </trkpt>
      <trkpt lat="47.898371" lon="7.910623">
        <ele>1056.175346</ele>
        <time>2021-09-03T17:34:35.999Z</time>
      </trkpt>
      <trkpt lat="47.898301" lon="7.910512">
        <ele>1056.172644</ele>
        <time>2021-09-03T17:34:43.000Z</time>
      </trkpt>
      <trkpt lat="47.898241" lon="7.910400">
        <ele>1056.170103</ele>
        <time>2021-09-03T17:34:50.000Z</time>
      </trkpt>
      <trkpt lat="47.898190" lon="7.910278">
        <ele>1056.167555</ele>
        <time>2021-09-03T17:34:57.000Z</time>
      </trkpt>
      <trkpt lat="47.898141" lon="7.910156">
        <ele>1056.165034</ele>
        <time>2021-09-03T17:35:04.000Z</time>
      </trkpt>
      <trkpt lat="47.898085" lon="7.910045">
        <ele>1056.162571</ele>
        <time>2021-09-03T17:35:11.000Z</time>
      </trkpt>
      <trkpt lat="47.898032" lon="7.909917">
        <ele>1056.159905</ele>
        <time>2021-09-03T17:35:18.000Z</time>
      </trkpt>
      <trkpt lat="47.897978" lon="7.909790">
        <ele>1056.157239</ele>
        <time>2021-09-03T17:35:25.000Z</time>
      </trkpt>
      <trkpt lat="47.897905" lon="7.909691">
        <ele>1056.154630</ele>
        <time>2021-09-03T17:35:31.999Z</time>
      </trkpt>
      <trkpt lat="47.897825" lon="7.909599">
        <ele>1056.151959</ele>
        <time>2021-09-03T17:35:39.999Z</time>
      </trkpt>
      <trkpt lat="47.897751" lon="7.909514">
        <ele>1056.149490</ele>
        <time>2021-09-03T17:35:46.999Z</time>
      </trkpt>
      <trkpt lat="47.897656" lon="7.909445">
        <ele>1056.146696</ele>
        <time>2021-09-03T17:35:53.999Z</time>
      </trkpt>
      <trkpt lat="47.897574" lon="7.909391">
        <ele>1056.144326</ele>
        <time>2021-09-03T17:35:59.999Z</time>
      </trkpt>
      <trkpt lat="47.897489" lon="7.909314">
        <ele>1056.141697</ele>
        <time>2021-09-03T17:36:06.999Z</time>
      </trkpt>
      <trkpt lat="47.897410" lon="7.909231">
        <ele>1056.139142</ele>
        <time>2021-09-03T17:36:13.999Z</time>
      </trkpt>
      <trkpt lat="47.897322" lon="7.909161">
        <ele>1056.229650</ele>
        <time>2021-09-03T17:36:20.999Z</time>
      </trkpt>
      <trkpt lat="47.897239" lon="7.909098">
        <ele>1056.330020</ele>
        <time>2021-09-03T17:36:27.999Z</time>
      </trkpt>
      <trkpt lat="47.897167" lon="7.909003">
        <ele>1056.433623</ele>
        <time>2021-09-03T17:36:34.999Z</time>
      </trkpt>
      <trkpt lat="47.897087" lon="7.908920">
        <ele>1056.538650</ele>
        <time>2021-09-03T17:36:41.999Z</time>
      </trkpt>
      <trkpt lat="47.897007" lon="7.908846">
        <ele>1056.640105</ele>
        <time>2021-09-03T17:36:49.000Z</time>
      </trkpt>
      <trkpt lat="47.896939" lon="7.908750">
        <ele>1056.741015</ele>
        <time>2021-09-03T17:36:56.000Z</time>
      </trkpt>
      <trkpt lat="47.896872" lon="7.908650">
        <ele>1056.843169</ele>
        <time>2021-09-03T17:37:03.000Z</time>
      </trkpt>
      <trkpt lat="47.896803" lon="7.908556">
        <ele>1056.943885</ele>
        <time>2021-09-03T17:37:10.000Z</time>
      </trkpt>
      <trkpt lat="47.896741" lon="7.908457">
        <ele>1057.041775</ele>
        <time>2021-09-03T17:37:17.000Z</time>
      </trkpt>
      <trkpt lat="47.896669" lon="7.908372">
        <ele>1057.140739</ele>
        <time>2021-09-03T17:37:24.000Z</time>
      </trkpt>
      <trkpt lat="47.896589" lon="7.908300">
        <ele>1057.241440</ele>
        <time>2021-09-03T17:37:31.000Z</time>
      </trkpt>
      <trkpt lat="47.896503" lon="7.908236">
        <ele>1057.345022</ele>
        <time>2021-09-03T17:37:38.000Z</time>
      </trkpt>
      <trkpt lat="47.896415" lon="7.908177">
        <ele>1057.449005</ele>
        <time>2021-09-03T17:37:45.000Z</time>
      </trkpt>
      <trkpt lat="47.896322" lon="7.908109">
        <ele>1057.560632</ele>
        <time>2021-09-03T17:37:52.000Z</time>
      </trkpt>
      <trkpt lat="47.896237" lon="7.908048">
        <ele>1057.662293</ele>
        <time>2021-09-03T17:37:58.999Z</time>
      </trkpt>
      <trkpt lat="47.896153" lon="7.907977">
        <ele>1057.766350</ele>
        <time>2021-09-03T17:38:05.999Z</time>
      </trkpt>
      <trkpt lat="47.896081" lon="7.907896">
        <ele>1057.863547</ele>
        <time>2021-09-03T17:38:12.999Z</time>
      </trkpt>
      <trkpt lat="47.896000" lon="7.907810">
        <ele>1057.970705</ele>
        <time>2021-09-03T17:38:19.999Z</time>
      </trkpt>
      <trkpt lat="47.895926" lon="7.907730">
        <ele>1058.069205</ele>
        <time>2021-09-03T17:38:25.999Z</time>
      </trkpt>
      <trkpt lat="47.895852" lon="7.907631">
        <ele>1058.074614</ele>
        <time>2021-09-03T17:38:32.999Z</time>
      </trkpt>
      <trkpt lat="47.895762" lon="7.907570">
        <ele>1058.071822</ele>
        <time>2021-09-03T17:38:39.999Z</time>
      </trkpt>
      <trkpt lat="47.895686" lon="7.907475">
        <ele>1058.069022</ele>
        <time>2021-09-03T17:38:46.999Z</time>
      </trkpt>
      <trkpt lat="47.895612" lon="7.907381">
        <ele>1058.066276</ele>
        <time>2021-09-03T17:38:54.000Z</time>
      </trkpt>
      <trkpt lat="47.895542" lon="7.907290">
        <ele>1058.063654</ele>
        <time>2021-09-03T17:39:01.000Z</time>
      </trkpt>
      <trkpt lat="47.895489" lon="7.907170">
        <ele>1058.060933</ele>
        <time>2021-09-03T17:39:08.000Z</time>
      </trkpt>
      <trkpt lat="47.895431" lon="7.907042">
        <ele>1058.058008</ele>
        <time>2021-09-03T17:39:16.000Z</time>
      </trkpt>
      <trkpt lat="47.895379" lon="7.906919">
        <ele>1058.055254</ele>
        <time>2021-09-03T17:39:23.000Z</time>
      </trkpt>
      <trkpt lat="47.895339" lon="7.906797">
        <ele>1058.052683</ele>
        <time>2021-09-03T17:39:29.000Z</time>
      </trkpt>
      <trkpt lat="47.895288" lon="7.906679">
        <ele>1058.050024</ele>
        <time>2021-09-03T17:39:36.000Z</time>
      </trkpt>
      <trkpt lat="47.895269" lon="7.906527">
        <ele>1058.047096</ele>
        <time>2021-09-03T17:39:43.000Z</time>
      </trkpt>
      <trkpt lat="47.895270" lon="7.906393">
        <ele>1058.044559</ele>
        <time>2021-09-03T17:39:49.999Z</time>
      </trkpt>
      <trkpt lat="47.895269" lon="7.906246">
        <ele>1058.041775</ele>
        <time>2021-09-03T17:39:56.999Z</time>
      </trkpt>
      <trkpt lat="47.895251" lon="7.906103">
        <ele>1058.039020</ele>
        <time>2021-09-03T17:40:03.999Z</time>
      </trkpt>
      <trkpt lat="47.895228" lon="7.905954">
        <ele>1058.036125</ele>
        <time>2021-09-03T17:40:10.999Z</time>
      </trkpt>
      <trkpt lat="47.895181" lon="7.905827">
        <ele>1058.033378</ele>
        <time>2021-09-03T17:40:17.999Z</time>
      </trkpt>
      <trkpt lat="47.895120" lon="7.905702">
        <ele>1058.030450</ele>
        <time>2021-09-03T17:40:24.999Z</time>
      </trkpt>
      <trkpt lat="47.895055" lon="7.905607">
        <ele>1058.027880</ele>
        <time>2021-09-03T17:40:30.999Z</time>
      </trkpt>
      <trkpt lat="47.894984" lon="7.905497">
        <ele>1058.219500</ele>
        <time>2021-09-03T17:40:37.999Z</time>
      </trkpt>
      <trkpt lat="47.894930" lon="7.905379">
        <ele>1058.585836</ele>
        <time>2021-09-03T17:40:44.999Z</time>
      </trkpt>
      <trkpt lat="47.894868" lon="7.905264">
        <ele>1058.964225</ele>
        <time>2021-09-03T17:40:51.999Z</time>
      </trkpt>
      <trkpt lat="47.894816" lon="7.905142">
        <ele>1059.334919</ele>
        <time>2021-09-03T17:40:59.000Z</time>
      </trkpt>
      <trkpt lat="47.894762" lon="7.905025">
        <ele>1059.699140</ele>
        <time>2021-09-03T17:41:06.000Z</time>
      </trkpt>
      <trkpt lat="47.894734" lon="7.904891">
        <ele>1060.059045</ele>
        <time>2021-09-03T17:41:13.000Z</time>
      </trkpt>
      <trkpt lat="47.894693" lon="7.904763">
        <ele>1060.422797</ele>
        <time>2021-09-03T17:41:20.000Z</time>
      </trkpt>
      <trkpt lat="47.894647" lon="7.904630">
        <ele>1060.806539</ele>
        <time>2021-09-03T17:41:29.000Z</time>
      </trkpt>
      <trkpt lat="47.894603" lon="7.904491">
        <ele>1061.200692</ele>
        <time>2021-09-03T17:41:37.000Z</time>
      </trkpt>
      <trkpt lat="47.894551" lon="7.904357">
        <ele>1061.597698</ele>
        <time>2021-09-03T17:41:44.000Z</time>
      </trkpt>
      <trkpt lat="47.894507" lon="7.904230">
        <ele>1061.964261</ele>
        <time>2021-09-03T17:41:51.000Z</time>
      </trkpt>
      <trkpt lat="47.894453" lon="7.904112">
        <ele>1062.330599</ele>
        <time>2021-09-03T17:41:58.000Z</time>
      </trkpt>
      <trkpt lat="47.894397" lon="7.903979">
        <ele>1062.733312</ele>
        <time>2021-09-03T17:42:06.000Z</time>
      </trkpt>
      <trkpt lat="47.894368" lon="7.903853">
        <ele>1063.074912</ele>
        <time>2021-09-03T17:42:12.999Z</time>
      </trkpt>
      <trkpt lat="47.894325" lon="7.903732">
        <ele>1063.426071</ele>
        <time>2021-09-03T17:42:18.999Z</time>
      </trkpt>
      <trkpt lat="47.894276" lon="7.903603">
        <ele>1063.806251</ele>
        <time>2021-09-03T17:42:25.999Z</time>
      </trkpt>
      <trkpt lat="47.894216" lon="7.903479">
        <ele>1064.198368</ele>
        <time>2021-09-03T17:42:33.999Z</time>
      </trkpt>
      <trkpt lat="47.894182" lon="7.903351">
        <ele>1064.551410</ele>
        <time>2021-09-03T17:42:39.999Z</time>
      </trkpt>
      <trkpt lat="47.894133" lon="7.903222">
        <ele>1064.963151</ele>
        <time>2021-09-03T17:42:46.999Z</time>
      </trkpt>
      <trkpt lat="47.894079" lon="7.903096">
        <ele>1065.803458</ele>
        <time>2021-09-03T17:42:54.999Z</time>
      </trkpt>
      <trkpt lat="47.894039" lon="7.902965">
        <ele>1066.612322</ele>
        <time>2021-09-03T17:43:01.999Z</time>
      </trkpt>
      <trkpt lat="47.893992" lon="7.902841">
        <ele>1067.412741</ele>
        <time>2021-09-03T17:43:09.000Z</time>
      </trkpt>
      <trkpt lat="47.893937" lon="7.902730">
        <ele>1068.188318</ele>
        <time>2021-09-03T17:43:16.000Z</time>
      </trkpt>
      <trkpt lat="47.893881" lon="7.902617">
        <ele>1068.977914</ele>
        <time>2021-09-03T17:43:23.000Z</time>
      </trkpt>
      <trkpt lat="47.893861" lon="7.902484">
        <ele>1069.743847</ele>
        <time>2021-09-03T17:43:31.000Z</time>
      </trkpt>
      <trkpt lat="47.893829" lon="7.902351">
        <ele>1070.537876</ele>
        <time>2021-09-03T17:43:39.000Z</time>
      </trkpt>
      <trkpt lat="47.893788" lon="7.902227">
        <ele>1071.314787</ele>
        <time>2021-09-03T17:43:46.000Z</time>
      </trkpt>
      <trkpt lat="47.893753" lon="7.902092">
        <ele>1072.128129</ele>
        <time>2021-09-03T17:43:54.000Z</time>
      </trkpt>
      <trkpt lat="47.893701" lon="7.901976">
        <ele>1072.912231</ele>
        <time>2021-09-03T17:44:01.000Z</time>
      </trkpt>
      <trkpt lat="47.893653" lon="7.901843">
        <ele>1073.760988</ele>
        <time>2021-09-03T17:44:08.999Z</time>
      </trkpt>
      <trkpt lat="47.893608" lon="7.901710">
        <ele>1074.598121</ele>
        <time>2021-09-03T17:44:16.999Z</time>
      </trkpt>
      <trkpt lat="47.893560" lon="7.901595">
        <ele>1075.359324</ele>
        <time>2021-09-03T17:44:23.999Z</time>
      </trkpt>
      <trkpt lat="47.893502" lon="7.901480">
        <ele>1076.167953</ele>
        <time>2021-09-03T17:44:30.999Z</time>
      </trkpt>
      <trkpt lat="47.893463" lon="7.901345">
        <ele>1076.993981</ele>
        <time>2021-09-03T17:44:38.999Z</time>
      </trkpt>
      <trkpt lat="47.893400" lon="7.901233">
        <ele>1077.815487</ele>
        <time>2021-09-03T17:44:46.999Z</time>
      </trkpt>
      <trkpt lat="47.893301" lon="7.901240">
        <ele>1078.646108</ele>
        <time>2021-09-03T17:44:54.999Z</time>
      </trkpt>
      <trkpt lat="47.893202" lon="7.901276">
        <ele>1079.500104</ele>
        <time>2021-09-03T17:45:02.999Z</time>
      </trkpt>
      <trkpt lat="47.893105" lon="7.901305">
        <ele>1080.247198</ele>
        <time>2021-09-03T17:45:10.000Z</time>
      </trkpt>
      <trkpt lat="47.893004" lon="7.901342">
        <ele>1080.914710</ele>
        <time>2021-09-03T17:45:17.000Z</time>
      </trkpt>
      <trkpt lat="47.892906" lon="7.901386">
        <ele>1081.571583</ele>
        <time>2021-09-03T17:45:26.000Z</time>
      </trkpt>
      <trkpt lat="47.892817" lon="7.901420">
        <ele>1082.161249</ele>
        <time>2021-09-03T17:45:32.000Z</time>
      </trkpt>
      <trkpt lat="47.892723" lon="7.901471">
        <ele>1082.803246</ele>
        <time>2021-09-03T17:45:39.000Z</time>
      </trkpt>
      <trkpt lat="47.892639" lon="7.901539">
        <ele>1083.416682</ele>
        <time>2021-09-03T17:45:46.000Z</time>
      </trkpt>
      <trkpt lat="47.892565" lon="7.901625">
        <ele>1084.018809</ele>
        <time>2021-09-03T17:45:53.000Z</time>
      </trkpt>
      <trkpt lat="47.892501" lon="7.901736">
        <ele>1084.648829</ele>
        <time>2021-09-03T17:46:02.000Z</time>
      </trkpt>
      <trkpt lat="47.892435" lon="7.901843">
        <ele>1085.274517</ele>
        <time>2021-09-03T17:46:10.000Z</time>
      </trkpt>
      <trkpt lat="47.892378" lon="7.901964">
        <ele>1085.910916</ele>
        <time>2021-09-03T17:46:18.000Z</time>
      </trkpt>
      <trkpt lat="47.892302" lon="7.902074">
        <ele>1086.590651</ele>
        <time>2021-09-03T17:46:26.000Z</time>
      </trkpt>
      <trkpt lat="47.892266" lon="7.902202">
        <ele>1087.188008</ele>
        <time>2021-09-03T17:46:35.000Z</time>
      </trkpt>
      <trkpt lat="47.892214" lon="7.902323">
        <ele>1087.806517</ele>
        <time>2021-09-03T17:46:58.999Z</time>
      </trkpt>
      <trkpt lat="47.892155" lon="7.902441">
        <ele>1088.439986</ele>
        <time>2021-09-03T17:47:06.999Z</time>
      </trkpt>
      <trkpt lat="47.892124" lon="7.902574">
        <ele>1089.045962</ele>
        <time>2021-09-03T17:47:13.999Z</time>
      </trkpt>
      <trkpt lat="47.892098" lon="7.902704">
        <ele>1089.629789</ele>
        <time>2021-09-03T17:47:20.000Z</time>
      </trkpt>
      <trkpt lat="47.892075" lon="7.902837">
        <ele>1090.220900</ele>
        <time>2021-09-03T17:47:26.000Z</time>
      </trkpt>
      <trkpt lat="47.892047" lon="7.902973">
        <ele>1090.833161</ele>
        <time>2021-09-03T17:47:33.000Z</time>
      </trkpt>
      <trkpt lat="47.892001" lon="7.903110">
        <ele>1091.492547</ele>
        <time>2021-09-03T17:47:40.000Z</time>
      </trkpt>
      <trkpt lat="47.891924" lon="7.903208">
        <ele>1091.609604</ele>
        <time>2021-09-03T17:47:47.000Z</time>
      </trkpt>
      <trkpt lat="47.891844" lon="7.903275">
        <ele>1091.691862</ele>
        <time>2021-09-03T17:47:53.000Z</time>
      </trkpt>
      <trkpt lat="47.891744" lon="7.903302">
        <ele>1091.782973</ele>
        <time>2021-09-03T17:48:00.000Z</time>
      </trkpt>
      <trkpt lat="47.891640" lon="7.903325">
        <ele>1091.877231</ele>
        <time>2021-09-03T17:48:08.000Z</time>
      </trkpt>
      <trkpt lat="47.891538" lon="7.903345">
        <ele>1091.969465</ele>
        <time>2021-09-03T17:48:16.000Z</time>
      </trkpt>
      <trkpt lat="47.891438" lon="7.903375">
        <ele>1092.060914</ele>
        <time>2021-09-03T17:48:22.999Z</time>
      </trkpt>
      <trkpt lat="47.891348" lon="7.903381">
        <ele>1092.141682</ele>
        <time>2021-09-03T17:48:29.999Z</time>
      </trkpt>
      <trkpt lat="47.891252" lon="7.903385">
        <ele>1092.227783</ele>
        <time>2021-09-03T17:48:36.999Z</time>
      </trkpt>
      <trkpt lat="47.891151" lon="7.903379">
        <ele>1092.318404</ele>
        <time>2021-09-03T17:48:44.999Z</time>
      </trkpt>
      <trkpt lat="47.891048" lon="7.903382">
        <ele>1092.410764</ele>
        <time>2021-09-03T17:48:50.999Z</time>
      </trkpt>
      <trkpt lat="47.890949" lon="7.903417">
        <ele>1092.501981</ele>
        <time>2021-09-03T17:48:56.999Z</time>
      </trkpt>
      <trkpt lat="47.890856" lon="7.903471">
        <ele>1092.591455</ele>
        <time>2021-09-03T17:49:03.999Z</time>
      </trkpt>
      <trkpt lat="47.890756" lon="7.903486">
        <ele>1092.681560</ele>
        <time>2021-09-03T17:49:10.999Z</time>
      </trkpt>
      <trkpt lat="47.890664" lon="7.903506">
        <ele>1092.764913</ele>
        <time>2021-09-03T17:49:17.999Z</time>
      </trkpt>
      <trkpt lat="47.890571" lon="7.903510">
        <ele>1092.848325</ele>
        <time>2021-09-03T17:49:26.000Z</time>
      </trkpt>
      <trkpt lat="47.890478" lon="7.903502">
        <ele>1092.931841</ele>
        <time>2021-09-03T17:49:34.000Z</time>
      </trkpt>
      <trkpt lat="47.890391" lon="7.903456">
        <ele>1093.014596</ele>
        <time>2021-09-03T17:49:40.000Z</time>
      </trkpt>
      <trkpt lat="47.890292" lon="7.903417">
        <ele>1093.106397</ele>
        <time>2021-09-03T17:49:50.000Z</time>
      </trkpt>
      <trkpt lat="47.890206" lon="7.903363">
        <ele>1093.322268</ele>
        <time>2021-09-03T17:49:56.000Z</time>
      </trkpt>
      <trkpt lat="47.890128" lon="7.903277">
        <ele>1093.620618</ele>
        <time>2021-09-03T17:50:05.000Z</time>
      </trkpt>
      <trkpt lat="47.890056" lon="7.903176">
        <ele>1093.924642</ele>
        <time>2021-09-03T17:50:13.000Z</time>
      </trkpt>
      <trkpt lat="47.889969" lon="7.903088">
        <ele>1094.247970</ele>
        <time>2021-09-03T17:50:20.000Z</time>
      </trkpt>
      <trkpt lat="47.889882" lon="7.903006">
        <ele>1094.564518</ele>
        <time>2021-09-03T17:50:28.000Z</time>
      </trkpt>
      <trkpt lat="47.889776" lon="7.902950">
        <ele>1094.910393</ele>
        <time>2021-09-03T17:50:34.000Z</time>
      </trkpt>
      <trkpt lat="47.889682" lon="7.902924">
        <ele>1095.204439</ele>
        <time>2021-09-03T17:50:40.000Z</time>
      </trkpt>
      <trkpt lat="47.889582" lon="7.902925">
        <ele>1095.512014</ele>
        <time>2021-09-03T17:50:46.000Z</time>
      </trkpt>
      <trkpt lat="47.889535" lon="7.903040">
        <ele>1095.789775</ele>
        <time>2021-09-03T17:50:51.999Z</time>
      </trkpt>
      <trkpt lat="47.889461" lon="7.903125">
        <ele>1096.077064</ele>
        <time>2021-09-03T17:50:56.999Z</time>
      </trkpt>
      <trkpt lat="47.889369" lon="7.903184">
        <ele>1096.385082</ele>
        <time>2021-09-03T17:51:02.999Z</time>
      </trkpt>
      <trkpt lat="47.889290" lon="7.903274">
        <ele>1096.690849</ele>
        <time>2021-09-03T17:51:09.999Z</time>
      </trkpt>
      <trkpt lat="47.889199" lon="7.903340">
        <ele>1097.002082</ele>
        <time>2021-09-03T17:51:16.999Z</time>
      </trkpt>
      <trkpt lat="47.889101" lon="7.903344">
        <ele>1097.303612</ele>
        <time>2021-09-03T17:51:23.999Z</time>
      </trkpt>
      <trkpt lat="47.889029" lon="7.903259">
        <ele>1097.586053</ele>
        <time>2021-09-03T17:51:31.000Z</time>
      </trkpt>
      <trkpt lat="47.888985" lon="7.903134">
        <ele>1097.877221</ele>
        <time>2021-09-03T17:51:40.000Z</time>
      </trkpt>
      <trkpt lat="47.888924" lon="7.903004">
        <ele>1098.204465</ele>
        <time>2021-09-03T17:51:48.000Z</time>
      </trkpt>
      <trkpt lat="47.888870" lon="7.902889">
        <ele>1098.494017</ele>
        <time>2021-09-03T17:51:57.000Z</time>
      </trkpt>
      <trkpt lat="47.888824" lon="7.902762">
        <ele>1099.106762</ele>
        <time>2021-09-03T17:52:05.000Z</time>
      </trkpt>
      <trkpt lat="47.888784" lon="7.902631">
        <ele>1100.157907</ele>
        <time>2021-09-03T17:52:14.000Z</time>
      </trkpt>
      <trkpt lat="47.888712" lon="7.902505">
        <ele>1101.366800</ele>
        <time>2021-09-03T17:52:24.000Z</time>
      </trkpt>
      <trkpt lat="47.888640" lon="7.902411">
        <ele>1102.408911</ele>
        <time>2021-09-03T17:52:31.000Z</time>
      </trkpt>
      <trkpt lat="47.888604" lon="7.902278">
        <ele>1103.456296</ele>
        <time>2021-09-03T17:52:39.000Z</time>
      </trkpt>
      <trkpt lat="47.888558" lon="7.902154">
        <ele>1104.491148</ele>
        <time>2021-09-03T17:52:48.000Z</time>
      </trkpt>
      <trkpt lat="47.888519" lon="7.902032">
        <ele>1105.478122</ele>
        <time>2021-09-03T17:52:53.999Z</time>
      </trkpt>
      <trkpt lat="47.888448" lon="7.901928">
        <ele>1106.561925</ele>
        <time>2021-09-03T17:53:00.999Z</time>
      </trkpt>
      <trkpt lat="47.888378" lon="7.901839">
        <ele>1107.563686</ele>
        <time>2021-09-03T17:53:07.999Z</time>
      </trkpt>
      <trkpt lat="47.888364" lon="7.901685">
        <ele>1108.698579</ele>
        <time>2021-09-03T17:53:17.999Z</time>
      </trkpt>
      <trkpt lat="47.888293" lon="7.901578">
        <ele>1109.797847</ele>
        <time>2021-09-03T17:53:24.999Z</time>
      </trkpt>
      <trkpt lat="47.888226" lon="7.901485">
        <ele>1110.794646</ele>
        <time>2021-09-03T17:53:30.999Z</time>
      </trkpt>
      <trkpt lat="47.888169" lon="7.901369">
        <ele>1111.844839</ele>
        <time>2021-09-03T17:53:39.000Z</time>
      </trkpt>
      <trkpt lat="47.888112" lon="7.901243">
        <ele>1112.954776</ele>
        <time>2021-09-03T17:53:46.000Z</time>
      </trkpt>
      <trkpt lat="47.888052" lon="7.901132">
        <ele>1113.995932</ele>
        <time>2021-09-03T17:53:54.000Z</time>
      </trkpt>
      <trkpt lat="47.888002" lon="7.901015">
        <ele>1115.009100</ele>
        <time>2021-09-03T17:54:02.000Z</time>
      </trkpt>
      <trkpt lat="47.887952" lon="7.900892">
        <ele>1116.059482</ele>
        <time>2021-09-03T17:54:09.000Z</time>
      </trkpt>
      <trkpt lat="47.887902" lon="7.900773">
        <ele>1117.084998</ele>
        <time>2021-09-03T17:54:19.000Z</time>
      </trkpt>
      <trkpt lat="47.887845" lon="7.900668">
        <ele>1118.071542</ele>
        <time>2021-09-03T17:54:26.000Z</time>
      </trkpt>
      <trkpt lat="47.887768" lon="7.900599">
        <ele>1118.937834</ele>
        <time>2021-09-03T17:54:34.000Z</time>
      </trkpt>
      <trkpt lat="47.887744" lon="7.900468">
        <ele>1119.789800</ele>
        <time>2021-09-03T17:54:42.000Z</time>
      </trkpt>
      <trkpt lat="47.887669" lon="7.900367">
        <ele>1120.735222</ele>
        <time>2021-09-03T17:54:50.999Z</time>
      </trkpt>
      <trkpt lat="47.887587" lon="7.900302">
        <ele>1121.604018</ele>
        <time>2021-09-03T17:54:56.999Z</time>
      </trkpt>
      <trkpt lat="47.887535" lon="7.900185">
        <ele>1122.484613</ele>
        <time>2021-09-03T17:55:05.999Z</time>
      </trkpt>
      <trkpt lat="47.887463" lon="7.900071">
        <ele>1123.467077</ele>
        <time>2021-09-03T17:55:14.999Z</time>
      </trkpt>
      <trkpt lat="47.887398" lon="7.899963">
        <ele>1124.377503</ele>
        <time>2021-09-03T17:55:24.999Z</time>
      </trkpt>
      <trkpt lat="47.887320" lon="7.899846">
        <ele>1125.412532</ele>
        <time>2021-09-03T17:55:33.999Z</time>
      </trkpt>
      <trkpt lat="47.887242" lon="7.899746">
        <ele>1126.374869</ele>
        <time>2021-09-03T17:55:43.000Z</time>
      </trkpt>
      <trkpt lat="47.887171" lon="7.899652">
        <ele>1127.263120</ele>
        <time>2021-09-03T17:56:02.000Z</time>
      </trkpt>
      <trkpt lat="47.887122" lon="7.899533">
        <ele>1128.139200</ele>
        <time>2021-09-03T17:56:10.000Z</time>
      </trkpt>
      <trkpt lat="47.887080" lon="7.899404">
        <ele>1129.038852</ele>
        <time>2021-09-03T17:56:21.000Z</time>
      </trkpt>
      <trkpt lat="47.887033" lon="7.899277">
        <ele>1129.948892</ele>
        <time>2021-09-03T17:56:30.000Z</time>
      </trkpt>
      <trkpt lat="47.887015" lon="7.899146">
        <ele>1130.787824</ele>
        <time>2021-09-03T17:56:38.000Z</time>
      </trkpt>
      <trkpt lat="47.887000" lon="7.898986">
        <ele>1131.801382</ele>
        <time>2021-09-03T17:56:46.000Z</time>
      </trkpt>
      <trkpt lat="47.886962" lon="7.898856">
        <ele>1132.691080</ele>
        <time>2021-09-03T17:56:53.999Z</time>
      </trkpt>
      <trkpt lat="47.886953" lon="7.898721">
        <ele>1133.542209</ele>
        <time>2021-09-03T17:57:01.999Z</time>
      </trkpt>
      <trkpt lat="47.886902" lon="7.898595">
        <ele>1134.465533</ele>
        <time>2021-09-03T17:57:07.999Z</time>
      </trkpt>
      <trkpt lat="47.886852" lon="7.898472">
        <ele>1135.080139</ele>
        <time>2021-09-03T17:57:14.999Z</time>
      </trkpt>
      <trkpt lat="47.886796" lon="7.898359">
        <ele>1135.073724</ele>
        <time>2021-09-03T17:57:21.999Z</time>
      </trkpt>
      <trkpt lat="47.886746" lon="7.898222">
        <ele>1135.066602</ele>
        <time>2021-09-03T17:57:29.999Z</time>
      </trkpt>
      <trkpt lat="47.886738" lon="7.898085">
        <ele>1135.060323</ele>
        <time>2021-09-03T17:57:36.999Z</time>
      </trkpt>
      <trkpt lat="47.886678" lon="7.897937">
        <ele>1135.052427</ele>
        <time>2021-09-03T17:57:43.999Z</time>
      </trkpt>
      <trkpt lat="47.886663" lon="7.897804">
        <ele>1135.046269</ele>
        <time>2021-09-03T17:57:51.000Z</time>
      </trkpt>
      <trkpt lat="47.886663" lon="7.897651">
        <ele>1135.039283</ele>
        <time>2021-09-03T17:57:59.000Z</time>
      </trkpt>
      <trkpt lat="47.886646" lon="7.897506">
        <ele>1135.032562</ele>
        <time>2021-09-03T17:58:06.000Z</time>
      </trkpt>
      <trkpt lat="47.886639" lon="7.897359">
        <ele>1135.025834</ele>
        <time>2021-09-03T17:58:13.000Z</time>
      </trkpt>
      <trkpt lat="47.886665" lon="7.897207">
        <ele>1135.018671</ele>
        <time>2021-09-03T17:58:21.000Z</time>
      </trkpt>
      <trkpt lat="47.886704" lon="7.897081">
        <ele>1135.012335</ele>
        <time>2021-09-03T17:58:28.000Z</time>
      </trkpt>
      <trkpt lat="47.886703" lon="7.896920">
        <ele>1135.004983</ele>
        <time>2021-09-03T17:58:37.000Z</time>
      </trkpt>
      <trkpt lat="47.886701" lon="7.896778">
        <ele>1134.998498</ele>
        <time>2021-09-03T17:58:43.999Z</time>
      </trkpt>
      <trkpt lat="47.886712" lon="7.896629">
        <ele>1134.991654</ele>
        <time>2021-09-03T17:58:50.999Z</time>
      </trkpt>
      <trkpt lat="47.886707" lon="7.896478">
        <ele>1134.984751</ele>
        <time>2021-09-03T17:58:57.999Z</time>
      </trkpt>
      <trkpt lat="47.886720" lon="7.896345">
        <ele>1134.978614</ele>
        <time>2021-09-03T17:59:03.999Z</time>
      </trkpt>
      <trkpt lat="47.886736" lon="7.896205">
        <ele>1134.972130</ele>
        <time>2021-09-03T17:59:10.999Z</time>
      </trkpt>
      <trkpt lat="47.886750" lon="7.896052">
        <ele>1134.965080</ele>
        <time>2021-09-03T17:59:17.999Z</time>
      </trkpt>
      <trkpt lat="47.886784" lon="7.895910">
        <ele>1134.915277</ele>
        <time>2021-09-03T17:59:24.999Z</time>
      </trkpt>
      <trkpt lat="47.886815" lon="7.895774">
        <ele>1134.728245</ele>
        <time>2021-09-03T17:59:31.999Z</time>
      </trkpt>
      <trkpt lat="47.886830" lon="7.895635">
        <ele>1134.544928</ele>
        <time>2021-09-03T17:59:38.999Z</time>
      </trkpt>
      <trkpt lat="47.886854" lon="7.895496">
        <ele>1134.358037</ele>
        <time>2021-09-03T17:59:45.999Z</time>
      </trkpt>
      <trkpt lat="47.886877" lon="7.895345">
        <ele>1134.156417</ele>
        <time>2021-09-03T17:59:53.000Z</time>
      </trkpt>
      <trkpt lat="47.886897" lon="7.895193">
        <ele>1133.954728</ele>
        <time>2021-09-03T18:00:00.000Z</time>
      </trkpt>
      <trkpt lat="47.886891" lon="7.895047">
        <ele>1133.764269</ele>
        <time>2021-09-03T18:00:08.000Z</time>
      </trkpt>
      <trkpt lat="47.886896" lon="7.894901">
        <ele>1133.573919</ele>
        <time>2021-09-03T18:00:16.000Z</time>
      </trkpt>
      <trkpt lat="47.886931" lon="7.894767">
        <ele>1133.386674</ele>
        <time>2021-09-03T18:00:22.000Z</time>
      </trkpt>
      <trkpt lat="47.886961" lon="7.894621">
        <ele>1133.187848</ele>
        <time>2021-09-03T18:00:29.000Z</time>
      </trkpt>
      <trkpt lat="47.886991" lon="7.894482">
        <ele>1132.997718</ele>
        <time>2021-09-03T18:00:36.000Z</time>
      </trkpt>
      <trkpt lat="47.887056" lon="7.894365">
        <ele>1132.799888</ele>
        <time>2021-09-03T18:00:44.000Z</time>
      </trkpt>
      <trkpt lat="47.887155" lon="7.894336">
        <ele>1132.603990</ele>
        <time>2021-09-03T18:00:51.000Z</time>
      </trkpt>
      <trkpt lat="47.887239" lon="7.894272">
        <ele>1132.420835</ele>
        <time>2021-09-03T18:00:57.999Z</time>
      </trkpt>
      <trkpt lat="47.887335" lon="7.894216">
        <ele>1132.220682</ele>
        <time>2021-09-03T18:01:04.999Z</time>
      </trkpt>
      <trkpt lat="47.887411" lon="7.894123">
        <ele>1132.029792</ele>
        <time>2021-09-03T18:01:11.999Z</time>
      </trkpt>
      <trkpt lat="47.887479" lon="7.894013">
        <ele>1131.834993</ele>
        <time>2021-09-03T18:01:18.999Z</time>
      </trkpt>
      <trkpt lat="47.887535" lon="7.893892">
        <ele>1131.643566</ele>
        <time>2021-09-03T18:01:25.999Z</time>
      </trkpt>
      <trkpt lat="47.887599" lon="7.893777">
        <ele>1131.496762</ele>
        <time>2021-09-03T18:01:32.999Z</time>
      </trkpt>
      <trkpt lat="47.887656" lon="7.893648">
        <ele>1131.817444</ele>
        <time>2021-09-03T18:01:39.999Z</time>
      </trkpt>
      <trkpt lat="47.887705" lon="7.893527">
        <ele>1132.110861</ele>
        <time>2021-09-03T18:01:46.999Z</time>
      </trkpt>
      <trkpt lat="47.887763" lon="7.893404">
        <ele>1132.422989</ele>
        <time>2021-09-03T18:01:53.999Z</time>
      </trkpt>
      <trkpt lat="47.887849" lon="7.893322">
        <ele>1132.738968</ele>
        <time>2021-09-03T18:02:01.000Z</time>
      </trkpt>
      <trkpt lat="47.887919" lon="7.893231">
        <ele>1133.026429</ele>
        <time>2021-09-03T18:02:08.000Z</time>
      </trkpt>
      <trkpt lat="47.888000" lon="7.893137">
        <ele>1133.344142</ele>
        <time>2021-09-03T18:02:16.000Z</time>
      </trkpt>
      <trkpt lat="47.888060" lon="7.893034">
        <ele>1133.627353</ele>
        <time>2021-09-03T18:02:23.000Z</time>
      </trkpt>
      <trkpt lat="47.888129" lon="7.892931">
        <ele>1133.929566</ele>
        <time>2021-09-03T18:02:30.000Z</time>
      </trkpt>
      <trkpt lat="47.888202" lon="7.892843">
        <ele>1134.220136</ele>
        <time>2021-09-03T18:02:37.000Z</time>
      </trkpt>
      <trkpt lat="47.888294" lon="7.892804">
        <ele>1134.516204</ele>
        <time>2021-09-03T18:02:44.000Z</time>
      </trkpt>
      <trkpt lat="47.888386" lon="7.892771">
        <ele>1134.809112</ele>
        <time>2021-09-03T18:02:51.000Z</time>
      </trkpt>
      <trkpt lat="47.888479" lon="7.892741">
        <ele>1135.103652</ele>
        <time>2021-09-03T18:02:57.999Z</time>
      </trkpt>
      <trkpt lat="47.888576" lon="7.892714">
        <ele>1135.409101</ele>
        <time>2021-09-03T18:03:04.999Z</time>
      </trkpt>
      <trkpt lat="47.888671" lon="7.892664">
        <ele>1135.720950</ele>
        <time>2021-09-03T18:03:11.999Z</time>
      </trkpt>
      <trkpt lat="47.888758" lon="7.892618">
        <ele>1136.006685</ele>
        <time>2021-09-03T18:03:18.999Z</time>
      </trkpt>
      <trkpt lat="47.888849" lon="7.892567">
        <ele>1136.307611</ele>
        <time>2021-09-03T18:03:25.999Z</time>
      </trkpt>
      <trkpt lat="47.888931" lon="7.892501">
        <ele>1136.596053</ele>
        <time>2021-09-03T18:03:32.999Z</time>
      </trkpt>
      <trkpt lat="47.889021" lon="7.892458">
        <ele>1136.888596</ele>
        <time>2021-09-03T18:03:39.999Z</time>
      </trkpt>
      <trkpt lat="47.889110" lon="7.892413">
        <ele>1137.035091</ele>
        <time>2021-09-03T18:03:46.999Z</time>
      </trkpt>
      <trkpt lat="47.889200" lon="7.892375">
        <ele>1137.035091</ele>
        <time>2021-09-03T18:03:53.999Z</time>
      </trkpt>
      <trkpt lat="47.889285" lon="7.892311">
        <ele>1137.035091</ele>
        <time>2021-09-03T18:04:00.999Z</time>
      </trkpt>
      <trkpt lat="47.889372" lon="7.892264">
        <ele>1137.035091</ele>
        <time>2021-09-03T18:04:08.000Z</time>
      </trkpt>
      <trkpt lat="47.889457" lon="7.892207">
        <ele>1137.035091</ele>
        <time>2021-09-03T18:04:15.000Z</time>
      </trkpt>
      <trkpt lat="47.889555" lon="7.892185">
        <ele>1137.035091</ele>
        <time>2021-09-03T18:04:22.000Z</time>
      </trkpt>
      <trkpt lat="47.889648" lon="7.892177">
        <ele>1137.035091</ele>
        <time>2021-09-03T18:04:29.000Z</time>
      </trkpt>
      <trkpt lat="47.889744" lon="7.892194">
        <ele>1137.035091</ele>
        <time>2021-09-03T18:04:36.000Z</time>
      </trkpt>
      <trkpt lat="47.889840" lon="7.892198">
        <ele>1137.035091</ele>
        <time>2021-09-03T18:04:43.000Z</time>
      </trkpt>
      <trkpt lat="47.889933" lon="7.892209">
        <ele>1137.035091</ele>
        <time>2021-09-03T18:04:51.000Z</time>
      </trkpt>
      <trkpt lat="47.890038" lon="7.892250">
        <ele>1137.035091</ele>
        <time>2021-09-03T18:04:59.999Z</time>
      </trkpt>
      <trkpt lat="47.890137" lon="7.892286">
        <ele>1137.035091</ele>
        <time>2021-09-03T18:05:09.999Z</time>
      </trkpt>
      <trkpt lat="47.890234" lon="7.892283">
        <ele>1137.035091</ele>
        <time>2021-09-03T18:05:32.999Z</time>
      </trkpt>
      <trkpt lat="47.890333" lon="7.892283">
        <ele>1137.035091</ele>
        <time>2021-09-03T18:05:41.999Z</time>
      </trkpt>
      <trkpt lat="47.890417" lon="7.892218">
        <ele>1137.035091</ele>
        <time>2021-09-03T18:05:51.999Z</time>
      </trkpt>
      <trkpt lat="47.890521" lon="7.892212">
        <ele>1137.035091</ele>
        <time>2021-09-03T18:06:11.000Z</time>
      </trkpt>
    </trkseg>
  </trk>
</gpx>